<?xml version="1.0" encoding="UTF-8" standalone="no" ?>
<gpx xmlns="http://www.topografix.com/GPX/1/1" xmlns:xsi="http://www.w3.org/2001/XMLSchema-instance" xsi:schemaLocation="http://www.topografix.com/GPX/1/1 http://www.topografix.com/GPX/1/1/gpx.xsd" version="1.1" creator="VisuGPX - https://www.visugpx.com">
  <metadata>
    <name>2017 12 17 crête de Grascouéou</name>
    <desc><![CDATA[Reconnaissance avec Paul jusqu'au cap de Pède en boucle.]]></desc>
  </metadata>
  <trk>
    <name><![CDATA[Tracé actuel: 17 DEC 2017 10:13]]></name>
    <trkseg>
      <trkpt lat="42.83121" lon="0.30814">
        <ele>1188.33</ele>
        <time>2017-12-17T09:13:25Z</time>
      </trkpt>
      <trkpt lat="42.83121" lon="0.30814">
        <ele>1188.33</ele>
        <time>2017-12-17T09:13:26Z</time>
      </trkpt>
      <trkpt lat="42.83119" lon="0.30814">
        <ele>1188.81</ele>
        <time>2017-12-17T09:14:03Z</time>
      </trkpt>
      <trkpt lat="42.83121" lon="0.30815">
        <ele>1188.81</ele>
        <time>2017-12-17T09:14:31Z</time>
      </trkpt>
      <trkpt lat="42.8312" lon="0.30813">
        <ele>1187.37</ele>
        <time>2017-12-17T09:14:40Z</time>
      </trkpt>
      <trkpt lat="42.83121" lon="0.30809">
        <ele>1187.37</ele>
        <time>2017-12-17T09:14:59Z</time>
      </trkpt>
      <trkpt lat="42.83121" lon="0.308">
        <ele>1187.37</ele>
        <time>2017-12-17T09:15:06Z</time>
      </trkpt>
      <trkpt lat="42.8312" lon="0.30797">
        <ele>1188.81</ele>
        <time>2017-12-17T09:15:08Z</time>
      </trkpt>
      <trkpt lat="42.8312" lon="0.30796">
        <ele>1188.81</ele>
        <time>2017-12-17T09:15:09Z</time>
      </trkpt>
      <trkpt lat="42.83114" lon="0.30779">
        <ele>1190.73</ele>
        <time>2017-12-17T09:15:25Z</time>
      </trkpt>
      <trkpt lat="42.83113" lon="0.30769">
        <ele>1191.69</ele>
        <time>2017-12-17T09:15:38Z</time>
      </trkpt>
      <trkpt lat="42.83113" lon="0.30762">
        <ele>1192.17</ele>
        <time>2017-12-17T09:15:52Z</time>
      </trkpt>
      <trkpt lat="42.83118" lon="0.30736">
        <ele>1194.09</ele>
        <time>2017-12-17T09:16:08Z</time>
      </trkpt>
      <trkpt lat="42.83122" lon="0.30712">
        <ele>1196.5</ele>
        <time>2017-12-17T09:16:23Z</time>
      </trkpt>
      <trkpt lat="42.83126" lon="0.30692">
        <ele>1198.42</ele>
        <time>2017-12-17T09:16:37Z</time>
      </trkpt>
      <trkpt lat="42.8313" lon="0.30674">
        <ele>1199.86</ele>
        <time>2017-12-17T09:16:51Z</time>
      </trkpt>
      <trkpt lat="42.83137" lon="0.30664">
        <ele>1201.3</ele>
        <time>2017-12-17T09:17:01Z</time>
      </trkpt>
      <trkpt lat="42.83139" lon="0.30673">
        <ele>1202.75</ele>
        <time>2017-12-17T09:17:11Z</time>
      </trkpt>
      <trkpt lat="42.83136" lon="0.30695">
        <ele>1204.19</ele>
        <time>2017-12-17T09:17:26Z</time>
      </trkpt>
      <trkpt lat="42.83137" lon="0.30699">
        <ele>1204.19</ele>
        <time>2017-12-17T09:17:43Z</time>
      </trkpt>
      <trkpt lat="42.83138" lon="0.30709">
        <ele>1205.15</ele>
        <time>2017-12-17T09:17:57Z</time>
      </trkpt>
      <trkpt lat="42.83137" lon="0.30724">
        <ele>1206.59</ele>
        <time>2017-12-17T09:18:08Z</time>
      </trkpt>
      <trkpt lat="42.83139" lon="0.30744">
        <ele>1208.51</ele>
        <time>2017-12-17T09:18:21Z</time>
      </trkpt>
      <trkpt lat="42.83139" lon="0.30749">
        <ele>1208.51</ele>
        <time>2017-12-17T09:18:24Z</time>
      </trkpt>
      <trkpt lat="42.83142" lon="0.30767">
        <ele>1210.44</ele>
        <time>2017-12-17T09:18:36Z</time>
      </trkpt>
      <trkpt lat="42.83145" lon="0.30776">
        <ele>1211.88</ele>
        <time>2017-12-17T09:18:42Z</time>
      </trkpt>
      <trkpt lat="42.83149" lon="0.30782">
        <ele>1211.88</ele>
        <time>2017-12-17T09:18:47Z</time>
      </trkpt>
      <trkpt lat="42.83158" lon="0.30799">
        <ele>1213.8</ele>
        <time>2017-12-17T09:19:00Z</time>
      </trkpt>
      <trkpt lat="42.83162" lon="0.30805">
        <ele>1215.24</ele>
        <time>2017-12-17T09:19:06Z</time>
      </trkpt>
      <trkpt lat="42.83163" lon="0.30808">
        <ele>1215.24</ele>
        <time>2017-12-17T09:19:08Z</time>
      </trkpt>
      <trkpt lat="42.83171" lon="0.30823">
        <ele>1216.69</ele>
        <time>2017-12-17T09:19:22Z</time>
      </trkpt>
      <trkpt lat="42.83177" lon="0.30839">
        <ele>1218.61</ele>
        <time>2017-12-17T09:19:36Z</time>
      </trkpt>
      <trkpt lat="42.83184" lon="0.3085">
        <ele>1220.53</ele>
        <time>2017-12-17T09:19:48Z</time>
      </trkpt>
      <trkpt lat="42.83192" lon="0.30858">
        <ele>1222.45</ele>
        <time>2017-12-17T09:20:00Z</time>
      </trkpt>
      <trkpt lat="42.83198" lon="0.30866">
        <ele>1224.38</ele>
        <time>2017-12-17T09:20:12Z</time>
      </trkpt>
      <trkpt lat="42.83202" lon="0.3087">
        <ele>1225.34</ele>
        <time>2017-12-17T09:20:18Z</time>
      </trkpt>
      <trkpt lat="42.83204" lon="0.30872">
        <ele>1225.34</ele>
        <time>2017-12-17T09:20:22Z</time>
      </trkpt>
      <trkpt lat="42.83207" lon="0.30874">
        <ele>1226.3</ele>
        <time>2017-12-17T09:20:26Z</time>
      </trkpt>
      <trkpt lat="42.83214" lon="0.30882">
        <ele>1227.74</ele>
        <time>2017-12-17T09:20:38Z</time>
      </trkpt>
      <trkpt lat="42.83218" lon="0.30885">
        <ele>1228.7</ele>
        <time>2017-12-17T09:20:44Z</time>
      </trkpt>
      <trkpt lat="42.83219" lon="0.30887">
        <ele>1228.7</ele>
        <time>2017-12-17T09:20:46Z</time>
      </trkpt>
      <trkpt lat="42.83227" lon="0.309">
        <ele>1230.62</ele>
        <time>2017-12-17T09:21:00Z</time>
      </trkpt>
      <trkpt lat="42.83232" lon="0.30907">
        <ele>1231.59</ele>
        <time>2017-12-17T09:21:09Z</time>
      </trkpt>
      <trkpt lat="42.83236" lon="0.30912">
        <ele>1232.55</ele>
        <time>2017-12-17T09:21:21Z</time>
      </trkpt>
      <trkpt lat="42.83243" lon="0.30919">
        <ele>1233.03</ele>
        <time>2017-12-17T09:21:38Z</time>
      </trkpt>
      <trkpt lat="42.83246" lon="0.3092">
        <ele>1233.51</ele>
        <time>2017-12-17T09:21:41Z</time>
      </trkpt>
      <trkpt lat="42.8325" lon="0.30932">
        <ele>1234.47</ele>
        <time>2017-12-17T09:21:51Z</time>
      </trkpt>
      <trkpt lat="42.8325" lon="0.30952">
        <ele>1236.87</ele>
        <time>2017-12-17T09:22:05Z</time>
      </trkpt>
      <trkpt lat="42.8325" lon="0.30966">
        <ele>1238.32</ele>
        <time>2017-12-17T09:22:16Z</time>
      </trkpt>
      <trkpt lat="42.8325" lon="0.30968">
        <ele>1238.8</ele>
        <time>2017-12-17T09:22:18Z</time>
      </trkpt>
      <trkpt lat="42.83249" lon="0.30974">
        <ele>1239.28</ele>
        <time>2017-12-17T09:22:22Z</time>
      </trkpt>
      <trkpt lat="42.83249" lon="0.30982">
        <ele>1240.24</ele>
        <time>2017-12-17T09:22:29Z</time>
      </trkpt>
      <trkpt lat="42.83251" lon="0.30995">
        <ele>1242.16</ele>
        <time>2017-12-17T09:22:41Z</time>
      </trkpt>
      <trkpt lat="42.83257" lon="0.31013">
        <ele>1244.08</ele>
        <time>2017-12-17T09:22:57Z</time>
      </trkpt>
      <trkpt lat="42.83262" lon="0.31026">
        <ele>1245.04</ele>
        <time>2017-12-17T09:23:08Z</time>
      </trkpt>
      <trkpt lat="42.83262" lon="0.31035">
        <ele>1246.01</ele>
        <time>2017-12-17T09:23:19Z</time>
      </trkpt>
      <trkpt lat="42.83266" lon="0.31039">
        <ele>1246.49</ele>
        <time>2017-12-17T09:23:35Z</time>
      </trkpt>
      <trkpt lat="42.83269" lon="0.31053">
        <ele>1247.93</ele>
        <time>2017-12-17T09:23:46Z</time>
      </trkpt>
      <trkpt lat="42.83274" lon="0.31067">
        <ele>1249.85</ele>
        <time>2017-12-17T09:23:58Z</time>
      </trkpt>
      <trkpt lat="42.83276" lon="0.31077">
        <ele>1250.81</ele>
        <time>2017-12-17T09:24:06Z</time>
      </trkpt>
      <trkpt lat="42.83281" lon="0.31097">
        <ele>1253.22</ele>
        <time>2017-12-17T09:24:22Z</time>
      </trkpt>
      <trkpt lat="42.83282" lon="0.311">
        <ele>1253.7</ele>
        <time>2017-12-17T09:24:25Z</time>
      </trkpt>
      <trkpt lat="42.83289" lon="0.31116">
        <ele>1256.1</ele>
        <time>2017-12-17T09:24:42Z</time>
      </trkpt>
      <trkpt lat="42.83292" lon="0.31123">
        <ele>1257.06</ele>
        <time>2017-12-17T09:24:48Z</time>
      </trkpt>
      <trkpt lat="42.83297" lon="0.31132">
        <ele>1258.02</ele>
        <time>2017-12-17T09:24:56Z</time>
      </trkpt>
      <trkpt lat="42.83303" lon="0.31139">
        <ele>1258.5</ele>
        <time>2017-12-17T09:25:03Z</time>
      </trkpt>
      <trkpt lat="42.83307" lon="0.31142">
        <ele>1258.98</ele>
        <time>2017-12-17T09:25:07Z</time>
      </trkpt>
      <trkpt lat="42.83322" lon="0.31149">
        <ele>1261.39</ele>
        <time>2017-12-17T09:25:23Z</time>
      </trkpt>
      <trkpt lat="42.83323" lon="0.31149">
        <ele>1261.39</ele>
        <time>2017-12-17T09:25:24Z</time>
      </trkpt>
      <trkpt lat="42.83337" lon="0.31157">
        <ele>1263.31</ele>
        <time>2017-12-17T09:25:39Z</time>
      </trkpt>
      <trkpt lat="42.83348" lon="0.3116">
        <ele>1265.23</ele>
        <time>2017-12-17T09:25:52Z</time>
      </trkpt>
      <trkpt lat="42.83351" lon="0.31162">
        <ele>1265.71</ele>
        <time>2017-12-17T09:26:04Z</time>
      </trkpt>
      <trkpt lat="42.83351" lon="0.31162">
        <ele>1265.71</ele>
        <time>2017-12-17T09:26:18Z</time>
      </trkpt>
      <trkpt lat="42.83352" lon="0.31159">
        <ele>1265.71</ele>
        <time>2017-12-17T09:26:24Z</time>
      </trkpt>
      <trkpt lat="42.83348" lon="0.31149">
        <ele>1265.71</ele>
        <time>2017-12-17T09:26:30Z</time>
      </trkpt>
      <trkpt lat="42.83344" lon="0.31146">
        <ele>1267.16</ele>
        <time>2017-12-17T09:26:34Z</time>
      </trkpt>
      <trkpt lat="42.8333" lon="0.31126">
        <ele>1269.56</ele>
        <time>2017-12-17T09:26:54Z</time>
      </trkpt>
      <trkpt lat="42.83325" lon="0.31108">
        <ele>1271.48</ele>
        <time>2017-12-17T09:27:09Z</time>
      </trkpt>
      <trkpt lat="42.83325" lon="0.31104">
        <ele>1272.44</ele>
        <time>2017-12-17T09:27:21Z</time>
      </trkpt>
      <trkpt lat="42.83324" lon="0.31101">
        <ele>1272.44</ele>
        <time>2017-12-17T09:27:41Z</time>
      </trkpt>
      <trkpt lat="42.83325" lon="0.31103">
        <ele>1272.44</ele>
        <time>2017-12-17T09:27:56Z</time>
      </trkpt>
      <trkpt lat="42.83322" lon="0.31105">
        <ele>1272.44</ele>
        <time>2017-12-17T09:28:14Z</time>
      </trkpt>
      <trkpt lat="42.83324" lon="0.31107">
        <ele>1272.44</ele>
        <time>2017-12-17T09:28:33Z</time>
      </trkpt>
      <trkpt lat="42.83326" lon="0.31106">
        <ele>1272.44</ele>
        <time>2017-12-17T09:28:54Z</time>
      </trkpt>
      <trkpt lat="42.83328" lon="0.31104">
        <ele>1272.44</ele>
        <time>2017-12-17T09:29:00Z</time>
      </trkpt>
      <trkpt lat="42.83324" lon="0.31105">
        <ele>1272.44</ele>
        <time>2017-12-17T09:29:12Z</time>
      </trkpt>
      <trkpt lat="42.83323" lon="0.31103">
        <ele>1272.44</ele>
        <time>2017-12-17T09:29:36Z</time>
      </trkpt>
      <trkpt lat="42.83325" lon="0.31105">
        <ele>1272.44</ele>
        <time>2017-12-17T09:29:57Z</time>
      </trkpt>
      <trkpt lat="42.83326" lon="0.311">
        <ele>1272.44</ele>
        <time>2017-12-17T09:30:12Z</time>
      </trkpt>
      <trkpt lat="42.83322" lon="0.31082">
        <ele>1273.88</ele>
        <time>2017-12-17T09:30:24Z</time>
      </trkpt>
      <trkpt lat="42.83322" lon="0.31078">
        <ele>1273.88</ele>
        <time>2017-12-17T09:30:27Z</time>
      </trkpt>
      <trkpt lat="42.83325" lon="0.31055">
        <ele>1275.81</ele>
        <time>2017-12-17T09:30:42Z</time>
      </trkpt>
      <trkpt lat="42.83327" lon="0.3104">
        <ele>1277.73</ele>
        <time>2017-12-17T09:30:53Z</time>
      </trkpt>
      <trkpt lat="42.83328" lon="0.3102">
        <ele>1280.13</ele>
        <time>2017-12-17T09:31:08Z</time>
      </trkpt>
      <trkpt lat="42.8333" lon="0.31018">
        <ele>1280.61</ele>
        <time>2017-12-17T09:31:10Z</time>
      </trkpt>
      <trkpt lat="42.8333" lon="0.31013">
        <ele>1281.09</ele>
        <time>2017-12-17T09:31:14Z</time>
      </trkpt>
      <trkpt lat="42.83333" lon="0.31002">
        <ele>1282.06</ele>
        <time>2017-12-17T09:31:23Z</time>
      </trkpt>
      <trkpt lat="42.83338" lon="0.30994">
        <ele>1283.98</ele>
        <time>2017-12-17T09:31:32Z</time>
      </trkpt>
      <trkpt lat="42.8334" lon="0.30996">
        <ele>1284.46</ele>
        <time>2017-12-17T09:31:35Z</time>
      </trkpt>
      <trkpt lat="42.83341" lon="0.31002">
        <ele>1285.42</ele>
        <time>2017-12-17T09:31:40Z</time>
      </trkpt>
      <trkpt lat="42.8334" lon="0.31009">
        <ele>1285.42</ele>
        <time>2017-12-17T09:31:44Z</time>
      </trkpt>
      <trkpt lat="42.83339" lon="0.31015">
        <ele>1285.9</ele>
        <time>2017-12-17T09:31:48Z</time>
      </trkpt>
      <trkpt lat="42.8334" lon="0.31035">
        <ele>1286.86</ele>
        <time>2017-12-17T09:32:00Z</time>
      </trkpt>
      <trkpt lat="42.83342" lon="0.31055">
        <ele>1288.78</ele>
        <time>2017-12-17T09:32:13Z</time>
      </trkpt>
      <trkpt lat="42.83346" lon="0.31074">
        <ele>1289.75</ele>
        <time>2017-12-17T09:32:26Z</time>
      </trkpt>
      <trkpt lat="42.83349" lon="0.3108">
        <ele>1291.19</ele>
        <time>2017-12-17T09:32:32Z</time>
      </trkpt>
      <trkpt lat="42.83353" lon="0.31084">
        <ele>1291.67</ele>
        <time>2017-12-17T09:32:36Z</time>
      </trkpt>
      <trkpt lat="42.83361" lon="0.31091">
        <ele>1293.11</ele>
        <time>2017-12-17T09:32:45Z</time>
      </trkpt>
      <trkpt lat="42.83371" lon="0.31098">
        <ele>1294.07</ele>
        <time>2017-12-17T09:32:55Z</time>
      </trkpt>
      <trkpt lat="42.83384" lon="0.31106">
        <ele>1295.51</ele>
        <time>2017-12-17T09:33:09Z</time>
      </trkpt>
      <trkpt lat="42.83399" lon="0.31111">
        <ele>1297.44</ele>
        <time>2017-12-17T09:33:23Z</time>
      </trkpt>
      <trkpt lat="42.83412" lon="0.31114">
        <ele>1299.36</ele>
        <time>2017-12-17T09:33:36Z</time>
      </trkpt>
      <trkpt lat="42.83424" lon="0.31117">
        <ele>1300.8</ele>
        <time>2017-12-17T09:33:48Z</time>
      </trkpt>
      <trkpt lat="42.83429" lon="0.31121">
        <ele>1301.76</ele>
        <time>2017-12-17T09:33:59Z</time>
      </trkpt>
      <trkpt lat="42.83438" lon="0.31127">
        <ele>1303.2</ele>
        <time>2017-12-17T09:34:10Z</time>
      </trkpt>
      <trkpt lat="42.83441" lon="0.3113">
        <ele>1304.17</ele>
        <time>2017-12-17T09:34:14Z</time>
      </trkpt>
      <trkpt lat="42.83446" lon="0.31136">
        <ele>1304.65</ele>
        <time>2017-12-17T09:34:20Z</time>
      </trkpt>
      <trkpt lat="42.83449" lon="0.31139">
        <ele>1305.13</ele>
        <time>2017-12-17T09:34:24Z</time>
      </trkpt>
      <trkpt lat="42.83452" lon="0.31141">
        <ele>1305.61</ele>
        <time>2017-12-17T09:34:27Z</time>
      </trkpt>
      <trkpt lat="42.83456" lon="0.31144">
        <ele>1306.09</ele>
        <time>2017-12-17T09:34:31Z</time>
      </trkpt>
      <trkpt lat="42.83469" lon="0.31153">
        <ele>1308.49</ele>
        <time>2017-12-17T09:34:45Z</time>
      </trkpt>
      <trkpt lat="42.83479" lon="0.3116">
        <ele>1309.45</ele>
        <time>2017-12-17T09:34:56Z</time>
      </trkpt>
      <trkpt lat="42.83482" lon="0.31162">
        <ele>1309.93</ele>
        <time>2017-12-17T09:34:59Z</time>
      </trkpt>
      <trkpt lat="42.8349" lon="0.31166">
        <ele>1310.9</ele>
        <time>2017-12-17T09:35:08Z</time>
      </trkpt>
      <trkpt lat="42.83493" lon="0.31167">
        <ele>1311.38</ele>
        <time>2017-12-17T09:35:11Z</time>
      </trkpt>
      <trkpt lat="42.83504" lon="0.31167">
        <ele>1313.3</ele>
        <time>2017-12-17T09:35:23Z</time>
      </trkpt>
      <trkpt lat="42.83514" lon="0.31167">
        <ele>1314.26</ele>
        <time>2017-12-17T09:35:34Z</time>
      </trkpt>
      <trkpt lat="42.83524" lon="0.31169">
        <ele>1316.18</ele>
        <time>2017-12-17T09:35:47Z</time>
      </trkpt>
      <trkpt lat="42.83536" lon="0.31171">
        <ele>1318.59</ele>
        <time>2017-12-17T09:36:00Z</time>
      </trkpt>
      <trkpt lat="42.83542" lon="0.31172">
        <ele>1319.07</ele>
        <time>2017-12-17T09:36:06Z</time>
      </trkpt>
      <trkpt lat="42.83545" lon="0.31173">
        <ele>1320.03</ele>
        <time>2017-12-17T09:36:09Z</time>
      </trkpt>
      <trkpt lat="42.83553" lon="0.31172">
        <ele>1320.51</ele>
        <time>2017-12-17T09:36:17Z</time>
      </trkpt>
      <trkpt lat="42.83555" lon="0.31172">
        <ele>1320.99</ele>
        <time>2017-12-17T09:36:19Z</time>
      </trkpt>
      <trkpt lat="42.83558" lon="0.31172">
        <ele>1321.47</ele>
        <time>2017-12-17T09:36:23Z</time>
      </trkpt>
      <trkpt lat="42.83563" lon="0.31171">
        <ele>1321.95</ele>
        <time>2017-12-17T09:36:29Z</time>
      </trkpt>
      <trkpt lat="42.83566" lon="0.31171">
        <ele>1322.43</ele>
        <time>2017-12-17T09:36:33Z</time>
      </trkpt>
      <trkpt lat="42.83575" lon="0.31172">
        <ele>1323.87</ele>
        <time>2017-12-17T09:36:44Z</time>
      </trkpt>
      <trkpt lat="42.83579" lon="0.31179">
        <ele>1324.83</ele>
        <time>2017-12-17T09:36:52Z</time>
      </trkpt>
      <trkpt lat="42.83575" lon="0.3119">
        <ele>1325.31</ele>
        <time>2017-12-17T09:37:00Z</time>
      </trkpt>
      <trkpt lat="42.83569" lon="0.31199">
        <ele>1326.28</ele>
        <time>2017-12-17T09:37:08Z</time>
      </trkpt>
      <trkpt lat="42.83567" lon="0.31205">
        <ele>1326.76</ele>
        <time>2017-12-17T09:37:19Z</time>
      </trkpt>
      <trkpt lat="42.83567" lon="0.31205">
        <ele>1327.24</ele>
        <time>2017-12-17T09:37:33Z</time>
      </trkpt>
      <trkpt lat="42.83565" lon="0.31208">
        <ele>1327.72</ele>
        <time>2017-12-17T09:37:44Z</time>
      </trkpt>
      <trkpt lat="42.83563" lon="0.31216">
        <ele>1328.2</ele>
        <time>2017-12-17T09:38:01Z</time>
      </trkpt>
      <trkpt lat="42.8356" lon="0.31225">
        <ele>1329.16</ele>
        <time>2017-12-17T09:38:09Z</time>
      </trkpt>
      <trkpt lat="42.83554" lon="0.31247">
        <ele>1331.08</ele>
        <time>2017-12-17T09:38:24Z</time>
      </trkpt>
      <trkpt lat="42.8355" lon="0.31259">
        <ele>1332.04</ele>
        <time>2017-12-17T09:38:34Z</time>
      </trkpt>
      <trkpt lat="42.8355" lon="0.31277">
        <ele>1334.45</ele>
        <time>2017-12-17T09:38:48Z</time>
      </trkpt>
      <trkpt lat="42.83551" lon="0.31283">
        <ele>1334.93</ele>
        <time>2017-12-17T09:38:52Z</time>
      </trkpt>
      <trkpt lat="42.83551" lon="0.31301">
        <ele>1336.37</ele>
        <time>2017-12-17T09:39:05Z</time>
      </trkpt>
      <trkpt lat="42.8355" lon="0.31303">
        <ele>1336.85</ele>
        <time>2017-12-17T09:39:18Z</time>
      </trkpt>
      <trkpt lat="42.83549" lon="0.31302">
        <ele>1336.85</ele>
        <time>2017-12-17T09:39:37Z</time>
      </trkpt>
      <trkpt lat="42.83551" lon="0.31303">
        <ele>1336.37</ele>
        <time>2017-12-17T09:39:46Z</time>
      </trkpt>
      <trkpt lat="42.83551" lon="0.31307">
        <ele>1336.37</ele>
        <time>2017-12-17T09:39:56Z</time>
      </trkpt>
      <trkpt lat="42.8355" lon="0.31324">
        <ele>1337.81</ele>
        <time>2017-12-17T09:40:08Z</time>
      </trkpt>
      <trkpt lat="42.83549" lon="0.31327">
        <ele>1338.29</ele>
        <time>2017-12-17T09:40:10Z</time>
      </trkpt>
      <trkpt lat="42.83548" lon="0.31333">
        <ele>1338.77</ele>
        <time>2017-12-17T09:40:14Z</time>
      </trkpt>
      <trkpt lat="42.83548" lon="0.31335">
        <ele>1338.77</ele>
        <time>2017-12-17T09:40:16Z</time>
      </trkpt>
      <trkpt lat="42.83548" lon="0.31345">
        <ele>1339.73</ele>
        <time>2017-12-17T09:40:24Z</time>
      </trkpt>
      <trkpt lat="42.83548" lon="0.31349">
        <ele>1340.22</ele>
        <time>2017-12-17T09:40:27Z</time>
      </trkpt>
      <trkpt lat="42.8355" lon="0.31366">
        <ele>1341.66</ele>
        <time>2017-12-17T09:40:41Z</time>
      </trkpt>
      <trkpt lat="42.8355" lon="0.31368">
        <ele>1341.66</ele>
        <time>2017-12-17T09:40:53Z</time>
      </trkpt>
      <trkpt lat="42.83552" lon="0.31374">
        <ele>1342.14</ele>
        <time>2017-12-17T09:41:08Z</time>
      </trkpt>
      <trkpt lat="42.83555" lon="0.31385">
        <ele>1343.58</ele>
        <time>2017-12-17T09:41:19Z</time>
      </trkpt>
      <trkpt lat="42.83556" lon="0.31391">
        <ele>1344.54</ele>
        <time>2017-12-17T09:41:35Z</time>
      </trkpt>
      <trkpt lat="42.83556" lon="0.31389">
        <ele>1344.06</ele>
        <time>2017-12-17T09:42:02Z</time>
      </trkpt>
      <trkpt lat="42.83555" lon="0.3139">
        <ele>1344.06</ele>
        <time>2017-12-17T09:42:39Z</time>
      </trkpt>
      <trkpt lat="42.83556" lon="0.31387">
        <ele>1344.06</ele>
        <time>2017-12-17T09:43:11Z</time>
      </trkpt>
      <trkpt lat="42.83557" lon="0.31387">
        <ele>1344.06</ele>
        <time>2017-12-17T09:43:43Z</time>
      </trkpt>
      <trkpt lat="42.83559" lon="0.31395">
        <ele>1344.06</ele>
        <time>2017-12-17T09:44:03Z</time>
      </trkpt>
      <trkpt lat="42.83565" lon="0.31407">
        <ele>1345.98</ele>
        <time>2017-12-17T09:44:13Z</time>
      </trkpt>
      <trkpt lat="42.83575" lon="0.31423">
        <ele>1348.39</ele>
        <time>2017-12-17T09:44:29Z</time>
      </trkpt>
      <trkpt lat="42.83577" lon="0.31427">
        <ele>1348.39</ele>
        <time>2017-12-17T09:44:42Z</time>
      </trkpt>
      <trkpt lat="42.83582" lon="0.31428">
        <ele>1348.39</ele>
        <time>2017-12-17T09:45:01Z</time>
      </trkpt>
      <trkpt lat="42.83585" lon="0.3143">
        <ele>1348.87</ele>
        <time>2017-12-17T09:45:12Z</time>
      </trkpt>
      <trkpt lat="42.83586" lon="0.31432">
        <ele>1348.87</ele>
        <time>2017-12-17T09:45:31Z</time>
      </trkpt>
      <trkpt lat="42.836" lon="0.31445">
        <ele>1350.79</ele>
        <time>2017-12-17T09:45:47Z</time>
      </trkpt>
      <trkpt lat="42.83604" lon="0.31447">
        <ele>1351.75</ele>
        <time>2017-12-17T09:46:02Z</time>
      </trkpt>
      <trkpt lat="42.8361" lon="0.31452">
        <ele>1352.23</ele>
        <time>2017-12-17T09:46:14Z</time>
      </trkpt>
      <trkpt lat="42.83621" lon="0.31459">
        <ele>1353.67</ele>
        <time>2017-12-17T09:46:27Z</time>
      </trkpt>
      <trkpt lat="42.83625" lon="0.31462">
        <ele>1354.15</ele>
        <time>2017-12-17T09:46:32Z</time>
      </trkpt>
      <trkpt lat="42.83628" lon="0.31466">
        <ele>1355.12</ele>
        <time>2017-12-17T09:46:45Z</time>
      </trkpt>
      <trkpt lat="42.83632" lon="0.31467">
        <ele>1355.12</ele>
        <time>2017-12-17T09:47:05Z</time>
      </trkpt>
      <trkpt lat="42.83634" lon="0.31468">
        <ele>1355.6</ele>
        <time>2017-12-17T09:47:07Z</time>
      </trkpt>
      <trkpt lat="42.83637" lon="0.31469">
        <ele>1356.08</ele>
        <time>2017-12-17T09:47:11Z</time>
      </trkpt>
      <trkpt lat="42.83641" lon="0.31473">
        <ele>1356.56</ele>
        <time>2017-12-17T09:47:16Z</time>
      </trkpt>
      <trkpt lat="42.83647" lon="0.31475">
        <ele>1357.52</ele>
        <time>2017-12-17T09:47:27Z</time>
      </trkpt>
      <trkpt lat="42.83646" lon="0.31477">
        <ele>1357.52</ele>
        <time>2017-12-17T09:47:58Z</time>
      </trkpt>
      <trkpt lat="42.83646" lon="0.31474">
        <ele>1357.04</ele>
        <time>2017-12-17T09:48:28Z</time>
      </trkpt>
      <trkpt lat="42.83649" lon="0.31475">
        <ele>1357.04</ele>
        <time>2017-12-17T09:48:43Z</time>
      </trkpt>
      <trkpt lat="42.83648" lon="0.31476">
        <ele>1357.04</ele>
        <time>2017-12-17T09:49:06Z</time>
      </trkpt>
      <trkpt lat="42.83646" lon="0.31473">
        <ele>1357.52</ele>
        <time>2017-12-17T09:49:23Z</time>
      </trkpt>
      <trkpt lat="42.83647" lon="0.31473">
        <ele>1357.52</ele>
        <time>2017-12-17T09:49:43Z</time>
      </trkpt>
      <trkpt lat="42.83656" lon="0.31474">
        <ele>1357.52</ele>
        <time>2017-12-17T09:49:56Z</time>
      </trkpt>
      <trkpt lat="42.83656" lon="0.31475">
        <ele>1358.48</ele>
        <time>2017-12-17T09:50:13Z</time>
      </trkpt>
      <trkpt lat="42.83654" lon="0.31474">
        <ele>1357.52</ele>
        <time>2017-12-17T09:50:39Z</time>
      </trkpt>
      <trkpt lat="42.83653" lon="0.31476">
        <ele>1357.52</ele>
        <time>2017-12-17T09:51:00Z</time>
      </trkpt>
      <trkpt lat="42.83653" lon="0.31474">
        <ele>1357.04</ele>
        <time>2017-12-17T09:51:20Z</time>
      </trkpt>
      <trkpt lat="42.83655" lon="0.31475">
        <ele>1357.04</ele>
        <time>2017-12-17T09:51:43Z</time>
      </trkpt>
      <trkpt lat="42.83656" lon="0.31472">
        <ele>1357.04</ele>
        <time>2017-12-17T09:51:58Z</time>
      </trkpt>
      <trkpt lat="42.83646" lon="0.31455">
        <ele>1358.48</ele>
        <time>2017-12-17T09:52:11Z</time>
      </trkpt>
      <trkpt lat="42.83642" lon="0.31452">
        <ele>1358.96</ele>
        <time>2017-12-17T09:52:14Z</time>
      </trkpt>
      <trkpt lat="42.83631" lon="0.31443">
        <ele>1359.92</ele>
        <time>2017-12-17T09:52:25Z</time>
      </trkpt>
      <trkpt lat="42.83626" lon="0.31438">
        <ele>1360.4</ele>
        <time>2017-12-17T09:52:31Z</time>
      </trkpt>
      <trkpt lat="42.8362" lon="0.31429">
        <ele>1361.36</ele>
        <time>2017-12-17T09:52:39Z</time>
      </trkpt>
      <trkpt lat="42.83612" lon="0.3141">
        <ele>1362.81</ele>
        <time>2017-12-17T09:52:53Z</time>
      </trkpt>
      <trkpt lat="42.83605" lon="0.3139">
        <ele>1364.25</ele>
        <time>2017-12-17T09:53:07Z</time>
      </trkpt>
      <trkpt lat="42.83604" lon="0.31387">
        <ele>1364.25</ele>
        <time>2017-12-17T09:53:09Z</time>
      </trkpt>
      <trkpt lat="42.83602" lon="0.31375">
        <ele>1366.17</ele>
        <time>2017-12-17T09:53:23Z</time>
      </trkpt>
      <trkpt lat="42.83604" lon="0.31375">
        <ele>1366.17</ele>
        <time>2017-12-17T09:53:46Z</time>
      </trkpt>
      <trkpt lat="42.83604" lon="0.31374">
        <ele>1366.17</ele>
        <time>2017-12-17T09:53:58Z</time>
      </trkpt>
      <trkpt lat="42.83603" lon="0.31371">
        <ele>1366.17</ele>
        <time>2017-12-17T09:54:01Z</time>
      </trkpt>
      <trkpt lat="42.83603" lon="0.31352">
        <ele>1367.61</ele>
        <time>2017-12-17T09:54:14Z</time>
      </trkpt>
      <trkpt lat="42.83604" lon="0.31348">
        <ele>1368.09</ele>
        <time>2017-12-17T09:54:17Z</time>
      </trkpt>
      <trkpt lat="42.83604" lon="0.31343">
        <ele>1369.05</ele>
        <time>2017-12-17T09:54:21Z</time>
      </trkpt>
      <trkpt lat="42.83605" lon="0.3134">
        <ele>1369.05</ele>
        <time>2017-12-17T09:54:23Z</time>
      </trkpt>
      <trkpt lat="42.83612" lon="0.3132">
        <ele>1370.98</ele>
        <time>2017-12-17T09:54:36Z</time>
      </trkpt>
      <trkpt lat="42.83615" lon="0.31308">
        <ele>1372.42</ele>
        <time>2017-12-17T09:54:45Z</time>
      </trkpt>
      <trkpt lat="42.83618" lon="0.31298">
        <ele>1373.86</ele>
        <time>2017-12-17T09:54:53Z</time>
      </trkpt>
      <trkpt lat="42.8362" lon="0.31289">
        <ele>1374.34</ele>
        <time>2017-12-17T09:55:00Z</time>
      </trkpt>
      <trkpt lat="42.83622" lon="0.31286">
        <ele>1374.82</ele>
        <time>2017-12-17T09:55:02Z</time>
      </trkpt>
      <trkpt lat="42.83623" lon="0.31282">
        <ele>1375.3</ele>
        <time>2017-12-17T09:55:05Z</time>
      </trkpt>
      <trkpt lat="42.83626" lon="0.31274">
        <ele>1376.26</ele>
        <time>2017-12-17T09:55:11Z</time>
      </trkpt>
      <trkpt lat="42.83626" lon="0.31272">
        <ele>1376.26</ele>
        <time>2017-12-17T09:55:13Z</time>
      </trkpt>
      <trkpt lat="42.83627" lon="0.31269">
        <ele>1376.75</ele>
        <time>2017-12-17T09:55:15Z</time>
      </trkpt>
      <trkpt lat="42.83628" lon="0.31264">
        <ele>1377.23</ele>
        <time>2017-12-17T09:55:18Z</time>
      </trkpt>
      <trkpt lat="42.8363" lon="0.31263">
        <ele>1377.23</ele>
        <time>2017-12-17T09:55:20Z</time>
      </trkpt>
      <trkpt lat="42.83631" lon="0.31259">
        <ele>1377.71</ele>
        <time>2017-12-17T09:55:23Z</time>
      </trkpt>
      <trkpt lat="42.83632" lon="0.31257">
        <ele>1377.71</ele>
        <time>2017-12-17T09:55:25Z</time>
      </trkpt>
      <trkpt lat="42.83638" lon="0.31242">
        <ele>1379.15</ele>
        <time>2017-12-17T09:55:37Z</time>
      </trkpt>
      <trkpt lat="42.83639" lon="0.31237">
        <ele>1380.11</ele>
        <time>2017-12-17T09:55:41Z</time>
      </trkpt>
      <trkpt lat="42.83642" lon="0.31227">
        <ele>1381.07</ele>
        <time>2017-12-17T09:55:49Z</time>
      </trkpt>
      <trkpt lat="42.83646" lon="0.31218">
        <ele>1381.55</ele>
        <time>2017-12-17T09:55:55Z</time>
      </trkpt>
      <trkpt lat="42.8365" lon="0.31203">
        <ele>1383.47</ele>
        <time>2017-12-17T09:56:07Z</time>
      </trkpt>
      <trkpt lat="42.83654" lon="0.31186">
        <ele>1385.4</ele>
        <time>2017-12-17T09:56:20Z</time>
      </trkpt>
      <trkpt lat="42.83656" lon="0.31179">
        <ele>1385.88</ele>
        <time>2017-12-17T09:56:26Z</time>
      </trkpt>
      <trkpt lat="42.83657" lon="0.31172">
        <ele>1386.36</ele>
        <time>2017-12-17T09:56:31Z</time>
      </trkpt>
      <trkpt lat="42.83657" lon="0.3117">
        <ele>1386.84</ele>
        <time>2017-12-17T09:56:33Z</time>
      </trkpt>
      <trkpt lat="42.83659" lon="0.31166">
        <ele>1387.32</ele>
        <time>2017-12-17T09:56:36Z</time>
      </trkpt>
      <trkpt lat="42.8366" lon="0.31163">
        <ele>1387.8</ele>
        <time>2017-12-17T09:56:39Z</time>
      </trkpt>
      <trkpt lat="42.83666" lon="0.31146">
        <ele>1389.72</ele>
        <time>2017-12-17T09:56:54Z</time>
      </trkpt>
      <trkpt lat="42.83666" lon="0.31142">
        <ele>1390.68</ele>
        <time>2017-12-17T09:57:10Z</time>
      </trkpt>
      <trkpt lat="42.83666" lon="0.31143">
        <ele>1391.17</ele>
        <time>2017-12-17T09:57:45Z</time>
      </trkpt>
      <trkpt lat="42.83668" lon="0.31141">
        <ele>1391.17</ele>
        <time>2017-12-17T09:58:22Z</time>
      </trkpt>
      <trkpt lat="42.83668" lon="0.31142">
        <ele>1391.17</ele>
        <time>2017-12-17T09:58:44Z</time>
      </trkpt>
      <trkpt lat="42.83668" lon="0.31142">
        <ele>1391.17</ele>
        <time>2017-12-17T09:58:48Z</time>
      </trkpt>
      <trkpt lat="42.83672" lon="0.31148">
        <ele>1391.17</ele>
        <time>2017-12-17T09:58:54Z</time>
      </trkpt>
      <trkpt lat="42.8367" lon="0.31158">
        <ele>1392.13</ele>
        <time>2017-12-17T09:59:02Z</time>
      </trkpt>
      <trkpt lat="42.8367" lon="0.3116">
        <ele>1392.61</ele>
        <time>2017-12-17T09:59:04Z</time>
      </trkpt>
      <trkpt lat="42.83668" lon="0.31169">
        <ele>1394.05</ele>
        <time>2017-12-17T09:59:10Z</time>
      </trkpt>
      <trkpt lat="42.83667" lon="0.31185">
        <ele>1395.49</ele>
        <time>2017-12-17T09:59:22Z</time>
      </trkpt>
      <trkpt lat="42.83665" lon="0.31205">
        <ele>1397.41</ele>
        <time>2017-12-17T09:59:37Z</time>
      </trkpt>
      <trkpt lat="42.83665" lon="0.31221">
        <ele>1399.34</ele>
        <time>2017-12-17T09:59:49Z</time>
      </trkpt>
      <trkpt lat="42.83664" lon="0.31238">
        <ele>1401.26</ele>
        <time>2017-12-17T10:00:03Z</time>
      </trkpt>
      <trkpt lat="42.83663" lon="0.31247">
        <ele>1402.22</ele>
        <time>2017-12-17T10:00:10Z</time>
      </trkpt>
      <trkpt lat="42.83664" lon="0.31249">
        <ele>1402.7</ele>
        <time>2017-12-17T10:00:12Z</time>
      </trkpt>
      <trkpt lat="42.83665" lon="0.31262">
        <ele>1404.14</ele>
        <time>2017-12-17T10:00:23Z</time>
      </trkpt>
      <trkpt lat="42.83665" lon="0.31268">
        <ele>1405.1</ele>
        <time>2017-12-17T10:00:28Z</time>
      </trkpt>
      <trkpt lat="42.83664" lon="0.31275">
        <ele>1405.1</ele>
        <time>2017-12-17T10:00:33Z</time>
      </trkpt>
      <trkpt lat="42.83664" lon="0.31279">
        <ele>1405.58</ele>
        <time>2017-12-17T10:00:36Z</time>
      </trkpt>
      <trkpt lat="42.83665" lon="0.31286">
        <ele>1406.55</ele>
        <time>2017-12-17T10:00:41Z</time>
      </trkpt>
      <trkpt lat="42.83666" lon="0.31291">
        <ele>1407.03</ele>
        <time>2017-12-17T10:00:47Z</time>
      </trkpt>
      <trkpt lat="42.83668" lon="0.31305">
        <ele>1408.95</ele>
        <time>2017-12-17T10:00:58Z</time>
      </trkpt>
      <trkpt lat="42.83668" lon="0.31308">
        <ele>1409.43</ele>
        <time>2017-12-17T10:01:00Z</time>
      </trkpt>
      <trkpt lat="42.83668" lon="0.31311">
        <ele>1409.43</ele>
        <time>2017-12-17T10:01:03Z</time>
      </trkpt>
      <trkpt lat="42.83669" lon="0.31315">
        <ele>1409.91</ele>
        <time>2017-12-17T10:01:06Z</time>
      </trkpt>
      <trkpt lat="42.83672" lon="0.31325">
        <ele>1411.35</ele>
        <time>2017-12-17T10:01:15Z</time>
      </trkpt>
      <trkpt lat="42.83677" lon="0.31339">
        <ele>1412.79</ele>
        <time>2017-12-17T10:01:27Z</time>
      </trkpt>
      <trkpt lat="42.83678" lon="0.31341">
        <ele>1413.76</ele>
        <time>2017-12-17T10:01:30Z</time>
      </trkpt>
      <trkpt lat="42.83679" lon="0.31344">
        <ele>1414.24</ele>
        <time>2017-12-17T10:01:33Z</time>
      </trkpt>
      <trkpt lat="42.83684" lon="0.31351">
        <ele>1415.2</ele>
        <time>2017-12-17T10:01:40Z</time>
      </trkpt>
      <trkpt lat="42.83695" lon="0.31357">
        <ele>1417.12</ele>
        <time>2017-12-17T10:01:53Z</time>
      </trkpt>
      <trkpt lat="42.83703" lon="0.31361">
        <ele>1418.08</ele>
        <time>2017-12-17T10:02:03Z</time>
      </trkpt>
      <trkpt lat="42.83712" lon="0.31365">
        <ele>1420</ele>
        <time>2017-12-17T10:02:15Z</time>
      </trkpt>
      <trkpt lat="42.83718" lon="0.31367">
        <ele>1420.49</ele>
        <time>2017-12-17T10:02:22Z</time>
      </trkpt>
      <trkpt lat="42.8373" lon="0.31369">
        <ele>1422.89</ele>
        <time>2017-12-17T10:02:37Z</time>
      </trkpt>
      <trkpt lat="42.83737" lon="0.31369">
        <ele>1423.85</ele>
        <time>2017-12-17T10:02:45Z</time>
      </trkpt>
      <trkpt lat="42.83747" lon="0.31367">
        <ele>1424.81</ele>
        <time>2017-12-17T10:02:56Z</time>
      </trkpt>
      <trkpt lat="42.83755" lon="0.31366">
        <ele>1426.25</ele>
        <time>2017-12-17T10:03:07Z</time>
      </trkpt>
      <trkpt lat="42.83764" lon="0.31363">
        <ele>1428.18</ele>
        <time>2017-12-17T10:03:20Z</time>
      </trkpt>
      <trkpt lat="42.83774" lon="0.31362">
        <ele>1429.62</ele>
        <time>2017-12-17T10:03:33Z</time>
      </trkpt>
      <trkpt lat="42.83785" lon="0.31361">
        <ele>1431.54</ele>
        <time>2017-12-17T10:03:47Z</time>
      </trkpt>
      <trkpt lat="42.83793" lon="0.31364">
        <ele>1432.98</ele>
        <time>2017-12-17T10:03:58Z</time>
      </trkpt>
      <trkpt lat="42.83804" lon="0.31371">
        <ele>1434.91</ele>
        <time>2017-12-17T10:04:13Z</time>
      </trkpt>
      <trkpt lat="42.83815" lon="0.31376">
        <ele>1437.31</ele>
        <time>2017-12-17T10:04:29Z</time>
      </trkpt>
      <trkpt lat="42.83824" lon="0.31378">
        <ele>1438.27</ele>
        <time>2017-12-17T10:04:40Z</time>
      </trkpt>
      <trkpt lat="42.83833" lon="0.31381">
        <ele>1440.19</ele>
        <time>2017-12-17T10:04:53Z</time>
      </trkpt>
      <trkpt lat="42.83832" lon="0.31382">
        <ele>1441.15</ele>
        <time>2017-12-17T10:05:08Z</time>
      </trkpt>
      <trkpt lat="42.83839" lon="0.31381">
        <ele>1441.63</ele>
        <time>2017-12-17T10:05:32Z</time>
      </trkpt>
      <trkpt lat="42.83851" lon="0.31382">
        <ele>1443.56</ele>
        <time>2017-12-17T10:05:45Z</time>
      </trkpt>
      <trkpt lat="42.83853" lon="0.31381">
        <ele>1444.04</ele>
        <time>2017-12-17T10:05:55Z</time>
      </trkpt>
      <trkpt lat="42.83856" lon="0.31382">
        <ele>1444.52</ele>
        <time>2017-12-17T10:06:00Z</time>
      </trkpt>
      <trkpt lat="42.83864" lon="0.31382">
        <ele>1445.48</ele>
        <time>2017-12-17T10:06:12Z</time>
      </trkpt>
      <trkpt lat="42.83869" lon="0.31382">
        <ele>1446.44</ele>
        <time>2017-12-17T10:06:17Z</time>
      </trkpt>
      <trkpt lat="42.83884" lon="0.31383">
        <ele>1448.84</ele>
        <time>2017-12-17T10:06:33Z</time>
      </trkpt>
      <trkpt lat="42.83894" lon="0.31385">
        <ele>1450.77</ele>
        <time>2017-12-17T10:06:45Z</time>
      </trkpt>
      <trkpt lat="42.83896" lon="0.31385">
        <ele>1450.77</ele>
        <time>2017-12-17T10:06:47Z</time>
      </trkpt>
      <trkpt lat="42.83903" lon="0.31386">
        <ele>1452.21</ele>
        <time>2017-12-17T10:06:57Z</time>
      </trkpt>
      <trkpt lat="42.83912" lon="0.31387">
        <ele>1453.65</ele>
        <time>2017-12-17T10:07:09Z</time>
      </trkpt>
      <trkpt lat="42.83916" lon="0.3139">
        <ele>1454.13</ele>
        <time>2017-12-17T10:07:15Z</time>
      </trkpt>
      <trkpt lat="42.83921" lon="0.31391">
        <ele>1454.61</ele>
        <time>2017-12-17T10:07:22Z</time>
      </trkpt>
      <trkpt lat="42.83929" lon="0.31398">
        <ele>1456.53</ele>
        <time>2017-12-17T10:07:34Z</time>
      </trkpt>
      <trkpt lat="42.83933" lon="0.31403">
        <ele>1457.02</ele>
        <time>2017-12-17T10:07:41Z</time>
      </trkpt>
      <trkpt lat="42.83935" lon="0.31403">
        <ele>1457.5</ele>
        <time>2017-12-17T10:07:43Z</time>
      </trkpt>
      <trkpt lat="42.83937" lon="0.31406">
        <ele>1457.5</ele>
        <time>2017-12-17T10:07:47Z</time>
      </trkpt>
      <trkpt lat="42.83939" lon="0.31409">
        <ele>1457.98</ele>
        <time>2017-12-17T10:07:51Z</time>
      </trkpt>
      <trkpt lat="42.83942" lon="0.31415">
        <ele>1458.94</ele>
        <time>2017-12-17T10:07:57Z</time>
      </trkpt>
      <trkpt lat="42.83944" lon="0.31419">
        <ele>1459.42</ele>
        <time>2017-12-17T10:08:01Z</time>
      </trkpt>
      <trkpt lat="42.83948" lon="0.31427">
        <ele>1460.38</ele>
        <time>2017-12-17T10:08:10Z</time>
      </trkpt>
      <trkpt lat="42.83956" lon="0.31432">
        <ele>1461.82</ele>
        <time>2017-12-17T10:08:20Z</time>
      </trkpt>
      <trkpt lat="42.83967" lon="0.31438">
        <ele>1464.23</ele>
        <time>2017-12-17T10:08:33Z</time>
      </trkpt>
      <trkpt lat="42.8397" lon="0.3144">
        <ele>1464.71</ele>
        <time>2017-12-17T10:08:37Z</time>
      </trkpt>
      <trkpt lat="42.83976" lon="0.31444">
        <ele>1465.67</ele>
        <time>2017-12-17T10:08:47Z</time>
      </trkpt>
      <trkpt lat="42.83979" lon="0.31447">
        <ele>1466.63</ele>
        <time>2017-12-17T10:08:51Z</time>
      </trkpt>
      <trkpt lat="42.83983" lon="0.3145">
        <ele>1467.59</ele>
        <time>2017-12-17T10:08:58Z</time>
      </trkpt>
      <trkpt lat="42.83988" lon="0.31453">
        <ele>1468.07</ele>
        <time>2017-12-17T10:09:05Z</time>
      </trkpt>
      <trkpt lat="42.83989" lon="0.31454">
        <ele>1468.55</ele>
        <time>2017-12-17T10:09:07Z</time>
      </trkpt>
      <trkpt lat="42.83991" lon="0.31456">
        <ele>1469.03</ele>
        <time>2017-12-17T10:09:09Z</time>
      </trkpt>
      <trkpt lat="42.83997" lon="0.31462">
        <ele>1470.47</ele>
        <time>2017-12-17T10:09:18Z</time>
      </trkpt>
      <trkpt lat="42.84004" lon="0.31468">
        <ele>1471.92</ele>
        <time>2017-12-17T10:09:30Z</time>
      </trkpt>
      <trkpt lat="42.84007" lon="0.31475">
        <ele>1472.4</ele>
        <time>2017-12-17T10:09:38Z</time>
      </trkpt>
      <trkpt lat="42.84009" lon="0.3148">
        <ele>1472.88</ele>
        <time>2017-12-17T10:09:43Z</time>
      </trkpt>
      <trkpt lat="42.84013" lon="0.31491">
        <ele>1474.32</ele>
        <time>2017-12-17T10:09:55Z</time>
      </trkpt>
      <trkpt lat="42.84011" lon="0.31495">
        <ele>1475.28</ele>
        <time>2017-12-17T10:10:04Z</time>
      </trkpt>
      <trkpt lat="42.84011" lon="0.31506">
        <ele>1475.28</ele>
        <time>2017-12-17T10:10:13Z</time>
      </trkpt>
      <trkpt lat="42.84011" lon="0.31521">
        <ele>1476.24</ele>
        <time>2017-12-17T10:10:25Z</time>
      </trkpt>
      <trkpt lat="42.84012" lon="0.31524">
        <ele>1476.24</ele>
        <time>2017-12-17T10:10:28Z</time>
      </trkpt>
      <trkpt lat="42.84011" lon="0.3153">
        <ele>1477.2</ele>
        <time>2017-12-17T10:10:34Z</time>
      </trkpt>
      <trkpt lat="42.84011" lon="0.31545">
        <ele>1478.16</ele>
        <time>2017-12-17T10:10:47Z</time>
      </trkpt>
      <trkpt lat="42.8401" lon="0.3155">
        <ele>1478.65</ele>
        <time>2017-12-17T10:10:51Z</time>
      </trkpt>
      <trkpt lat="42.84009" lon="0.3156">
        <ele>1479.61</ele>
        <time>2017-12-17T10:11:03Z</time>
      </trkpt>
      <trkpt lat="42.84009" lon="0.31563">
        <ele>1480.09</ele>
        <time>2017-12-17T10:11:22Z</time>
      </trkpt>
      <trkpt lat="42.8401" lon="0.31572">
        <ele>1480.57</ele>
        <time>2017-12-17T10:11:35Z</time>
      </trkpt>
      <trkpt lat="42.84012" lon="0.31573">
        <ele>1480.57</ele>
        <time>2017-12-17T10:11:48Z</time>
      </trkpt>
      <trkpt lat="42.84013" lon="0.31578">
        <ele>1481.05</ele>
        <time>2017-12-17T10:12:05Z</time>
      </trkpt>
      <trkpt lat="42.84014" lon="0.31582">
        <ele>1481.05</ele>
        <time>2017-12-17T10:12:26Z</time>
      </trkpt>
      <trkpt lat="42.84015" lon="0.31584">
        <ele>1481.53</ele>
        <time>2017-12-17T10:12:29Z</time>
      </trkpt>
      <trkpt lat="42.8402" lon="0.31589">
        <ele>1482.49</ele>
        <time>2017-12-17T10:12:41Z</time>
      </trkpt>
      <trkpt lat="42.84021" lon="0.31591">
        <ele>1482.49</ele>
        <time>2017-12-17T10:12:57Z</time>
      </trkpt>
      <trkpt lat="42.84022" lon="0.31592">
        <ele>1482.49</ele>
        <time>2017-12-17T10:12:58Z</time>
      </trkpt>
      <trkpt lat="42.84025" lon="0.31594">
        <ele>1482.49</ele>
        <time>2017-12-17T10:13:02Z</time>
      </trkpt>
      <trkpt lat="42.84018" lon="0.316">
        <ele>1482.49</ele>
        <time>2017-12-17T10:13:13Z</time>
      </trkpt>
      <trkpt lat="42.84018" lon="0.31603">
        <ele>1480.57</ele>
        <time>2017-12-17T10:13:25Z</time>
      </trkpt>
      <trkpt lat="42.8402" lon="0.31603">
        <ele>1480.09</ele>
        <time>2017-12-17T10:13:50Z</time>
      </trkpt>
      <trkpt lat="42.84021" lon="0.31596">
        <ele>1482.01</ele>
        <time>2017-12-17T10:14:01Z</time>
      </trkpt>
      <trkpt lat="42.84022" lon="0.31593">
        <ele>1482.01</ele>
        <time>2017-12-17T10:14:04Z</time>
      </trkpt>
      <trkpt lat="42.84025" lon="0.31592">
        <ele>1482.01</ele>
        <time>2017-12-17T10:14:07Z</time>
      </trkpt>
      <trkpt lat="42.84037" lon="0.31605">
        <ele>1483.45</ele>
        <time>2017-12-17T10:14:21Z</time>
      </trkpt>
      <trkpt lat="42.84039" lon="0.31609">
        <ele>1483.45</ele>
        <time>2017-12-17T10:14:24Z</time>
      </trkpt>
      <trkpt lat="42.84041" lon="0.31615">
        <ele>1483.45</ele>
        <time>2017-12-17T10:14:36Z</time>
      </trkpt>
      <trkpt lat="42.84042" lon="0.31616">
        <ele>1483.45</ele>
        <time>2017-12-17T10:14:47Z</time>
      </trkpt>
      <trkpt lat="42.84043" lon="0.31622">
        <ele>1483.45</ele>
        <time>2017-12-17T10:14:52Z</time>
      </trkpt>
      <trkpt lat="42.84044" lon="0.31636">
        <ele>1483.93</ele>
        <time>2017-12-17T10:15:07Z</time>
      </trkpt>
      <trkpt lat="42.84044" lon="0.31637">
        <ele>1483.93</ele>
        <time>2017-12-17T10:15:17Z</time>
      </trkpt>
      <trkpt lat="42.84044" lon="0.31654">
        <ele>1485.85</ele>
        <time>2017-12-17T10:15:31Z</time>
      </trkpt>
      <trkpt lat="42.84045" lon="0.31667">
        <ele>1487.3</ele>
        <time>2017-12-17T10:15:41Z</time>
      </trkpt>
      <trkpt lat="42.84047" lon="0.31673">
        <ele>1488.74</ele>
        <time>2017-12-17T10:15:54Z</time>
      </trkpt>
      <trkpt lat="42.84048" lon="0.31677">
        <ele>1488.74</ele>
        <time>2017-12-17T10:16:09Z</time>
      </trkpt>
      <trkpt lat="42.84052" lon="0.31688">
        <ele>1489.7</ele>
        <time>2017-12-17T10:16:19Z</time>
      </trkpt>
      <trkpt lat="42.84054" lon="0.31695">
        <ele>1490.18</ele>
        <time>2017-12-17T10:16:25Z</time>
      </trkpt>
      <trkpt lat="42.84055" lon="0.31704">
        <ele>1491.62</ele>
        <time>2017-12-17T10:16:32Z</time>
      </trkpt>
      <trkpt lat="42.84055" lon="0.31709">
        <ele>1492.1</ele>
        <time>2017-12-17T10:16:37Z</time>
      </trkpt>
      <trkpt lat="42.84056" lon="0.31718">
        <ele>1493.06</ele>
        <time>2017-12-17T10:16:44Z</time>
      </trkpt>
      <trkpt lat="42.84056" lon="0.31727">
        <ele>1493.55</ele>
        <time>2017-12-17T10:16:53Z</time>
      </trkpt>
      <trkpt lat="42.84058" lon="0.31734">
        <ele>1494.03</ele>
        <time>2017-12-17T10:17:05Z</time>
      </trkpt>
      <trkpt lat="42.84058" lon="0.31736">
        <ele>1494.03</ele>
        <time>2017-12-17T10:17:20Z</time>
      </trkpt>
      <trkpt lat="42.84058" lon="0.31734">
        <ele>1494.03</ele>
        <time>2017-12-17T10:17:35Z</time>
      </trkpt>
      <trkpt lat="42.84057" lon="0.31737">
        <ele>1494.03</ele>
        <time>2017-12-17T10:17:41Z</time>
      </trkpt>
      <trkpt lat="42.84058" lon="0.31739">
        <ele>1494.51</ele>
        <time>2017-12-17T10:17:43Z</time>
      </trkpt>
      <trkpt lat="42.84058" lon="0.31743">
        <ele>1494.51</ele>
        <time>2017-12-17T10:17:54Z</time>
      </trkpt>
      <trkpt lat="42.84056" lon="0.31746">
        <ele>1494.51</ele>
        <time>2017-12-17T10:18:08Z</time>
      </trkpt>
      <trkpt lat="42.84056" lon="0.31747">
        <ele>1494.51</ele>
        <time>2017-12-17T10:18:09Z</time>
      </trkpt>
      <trkpt lat="42.84049" lon="0.31758">
        <ele>1494.51</ele>
        <time>2017-12-17T10:18:23Z</time>
      </trkpt>
      <trkpt lat="42.8405" lon="0.31759">
        <ele>1494.51</ele>
        <time>2017-12-17T10:18:41Z</time>
      </trkpt>
      <trkpt lat="42.8405" lon="0.3176">
        <ele>1494.51</ele>
        <time>2017-12-17T10:18:56Z</time>
      </trkpt>
      <trkpt lat="42.84051" lon="0.3176">
        <ele>1494.51</ele>
        <time>2017-12-17T10:19:09Z</time>
      </trkpt>
      <trkpt lat="42.84056" lon="0.31748">
        <ele>1493.06</ele>
        <time>2017-12-17T10:19:19Z</time>
      </trkpt>
      <trkpt lat="42.84057" lon="0.3174">
        <ele>1493.06</ele>
        <time>2017-12-17T10:19:26Z</time>
      </trkpt>
      <trkpt lat="42.84057" lon="0.31738">
        <ele>1493.06</ele>
        <time>2017-12-17T10:19:39Z</time>
      </trkpt>
      <trkpt lat="42.84058" lon="0.31739">
        <ele>1493.06</ele>
        <time>2017-12-17T10:19:58Z</time>
      </trkpt>
      <trkpt lat="42.84058" lon="0.31737">
        <ele>1493.06</ele>
        <time>2017-12-17T10:20:13Z</time>
      </trkpt>
      <trkpt lat="42.84055" lon="0.31734">
        <ele>1493.06</ele>
        <time>2017-12-17T10:20:32Z</time>
      </trkpt>
      <trkpt lat="42.84056" lon="0.31733">
        <ele>1493.06</ele>
        <time>2017-12-17T10:20:46Z</time>
      </trkpt>
      <trkpt lat="42.84055" lon="0.31733">
        <ele>1492.58</ele>
        <time>2017-12-17T10:21:07Z</time>
      </trkpt>
      <trkpt lat="42.84057" lon="0.31736">
        <ele>1492.58</ele>
        <time>2017-12-17T10:21:55Z</time>
      </trkpt>
      <trkpt lat="42.84056" lon="0.31733">
        <ele>1492.58</ele>
        <time>2017-12-17T10:22:46Z</time>
      </trkpt>
      <trkpt lat="42.84056" lon="0.31734">
        <ele>1492.58</ele>
        <time>2017-12-17T10:23:43Z</time>
      </trkpt>
      <trkpt lat="42.84057" lon="0.31735">
        <ele>1492.58</ele>
        <time>2017-12-17T10:24:35Z</time>
      </trkpt>
      <trkpt lat="42.84057" lon="0.31734">
        <ele>1492.58</ele>
        <time>2017-12-17T10:25:25Z</time>
      </trkpt>
      <trkpt lat="42.84056" lon="0.31734">
        <ele>1494.03</ele>
        <time>2017-12-17T10:26:11Z</time>
      </trkpt>
      <trkpt lat="42.84056" lon="0.31734">
        <ele>1494.03</ele>
        <time>2017-12-17T10:27:00Z</time>
      </trkpt>
      <trkpt lat="42.84056" lon="0.31734">
        <ele>1495.95</ele>
        <time>2017-12-17T10:27:28Z</time>
      </trkpt>
      <trkpt lat="42.84055" lon="0.31735">
        <ele>1495.95</ele>
        <time>2017-12-17T10:27:46Z</time>
      </trkpt>
      <trkpt lat="42.84056" lon="0.31735">
        <ele>1495.95</ele>
        <time>2017-12-17T10:28:01Z</time>
      </trkpt>
      <trkpt lat="42.84058" lon="0.31735">
        <ele>1496.43</ele>
        <time>2017-12-17T10:28:24Z</time>
      </trkpt>
      <trkpt lat="42.84059" lon="0.31736">
        <ele>1496.43</ele>
        <time>2017-12-17T10:28:36Z</time>
      </trkpt>
      <trkpt lat="42.8406" lon="0.31735">
        <ele>1496.43</ele>
        <time>2017-12-17T10:28:56Z</time>
      </trkpt>
      <trkpt lat="42.84059" lon="0.31737">
        <ele>1496.43</ele>
        <time>2017-12-17T10:29:15Z</time>
      </trkpt>
      <trkpt lat="42.84057" lon="0.31736">
        <ele>1496.43</ele>
        <time>2017-12-17T10:29:54Z</time>
      </trkpt>
      <trkpt lat="42.84056" lon="0.31737">
        <ele>1496.43</ele>
        <time>2017-12-17T10:30:33Z</time>
      </trkpt>
      <trkpt lat="42.84056" lon="0.31737">
        <ele>1496.43</ele>
        <time>2017-12-17T10:30:56Z</time>
      </trkpt>
      <trkpt lat="42.84057" lon="0.31737">
        <ele>1496.43</ele>
        <time>2017-12-17T10:31:20Z</time>
      </trkpt>
      <trkpt lat="42.84059" lon="0.3174">
        <ele>1495.95</ele>
        <time>2017-12-17T10:31:48Z</time>
      </trkpt>
      <trkpt lat="42.84058" lon="0.31739">
        <ele>1495.95</ele>
        <time>2017-12-17T10:31:51Z</time>
      </trkpt>
      <trkpt lat="42.84058" lon="0.3174">
        <ele>1495.95</ele>
        <time>2017-12-17T10:32:06Z</time>
      </trkpt>
      <trkpt lat="42.84059" lon="0.31741">
        <ele>1494.99</ele>
        <time>2017-12-17T10:32:26Z</time>
      </trkpt>
      <trkpt lat="42.84059" lon="0.31743">
        <ele>1494.99</ele>
        <time>2017-12-17T10:32:48Z</time>
      </trkpt>
      <trkpt lat="42.8406" lon="0.3174">
        <ele>1494.99</ele>
        <time>2017-12-17T10:33:19Z</time>
      </trkpt>
      <trkpt lat="42.84061" lon="0.31738">
        <ele>1494.99</ele>
        <time>2017-12-17T10:33:28Z</time>
      </trkpt>
      <trkpt lat="42.84061" lon="0.31735">
        <ele>1495.95</ele>
        <time>2017-12-17T10:33:43Z</time>
      </trkpt>
      <trkpt lat="42.84062" lon="0.31737">
        <ele>1495.95</ele>
        <time>2017-12-17T10:33:55Z</time>
      </trkpt>
      <trkpt lat="42.84064" lon="0.3173">
        <ele>1494.51</ele>
        <time>2017-12-17T10:34:00Z</time>
      </trkpt>
      <trkpt lat="42.84064" lon="0.31728">
        <ele>1494.51</ele>
        <time>2017-12-17T10:34:01Z</time>
      </trkpt>
      <trkpt lat="42.84065" lon="0.31721">
        <ele>1494.51</ele>
        <time>2017-12-17T10:34:07Z</time>
      </trkpt>
      <trkpt lat="42.84068" lon="0.31716">
        <ele>1495.95</ele>
        <time>2017-12-17T10:34:12Z</time>
      </trkpt>
      <trkpt lat="42.84072" lon="0.31713">
        <ele>1495.47</ele>
        <time>2017-12-17T10:34:26Z</time>
      </trkpt>
      <trkpt lat="42.84071" lon="0.31713">
        <ele>1495.47</ele>
        <time>2017-12-17T10:34:39Z</time>
      </trkpt>
      <trkpt lat="42.84074" lon="0.3171">
        <ele>1495.95</ele>
        <time>2017-12-17T10:34:43Z</time>
      </trkpt>
      <trkpt lat="42.84079" lon="0.31703">
        <ele>1496.43</ele>
        <time>2017-12-17T10:34:50Z</time>
      </trkpt>
      <trkpt lat="42.84086" lon="0.31693">
        <ele>1496.91</ele>
        <time>2017-12-17T10:35:02Z</time>
      </trkpt>
      <trkpt lat="42.8409" lon="0.31687">
        <ele>1497.87</ele>
        <time>2017-12-17T10:35:13Z</time>
      </trkpt>
      <trkpt lat="42.84091" lon="0.31683">
        <ele>1499.31</ele>
        <time>2017-12-17T10:35:18Z</time>
      </trkpt>
      <trkpt lat="42.84092" lon="0.31673">
        <ele>1500.76</ele>
        <time>2017-12-17T10:35:30Z</time>
      </trkpt>
      <trkpt lat="42.84094" lon="0.31665">
        <ele>1502.2</ele>
        <time>2017-12-17T10:35:43Z</time>
      </trkpt>
      <trkpt lat="42.84094" lon="0.31657">
        <ele>1504.12</ele>
        <time>2017-12-17T10:35:56Z</time>
      </trkpt>
      <trkpt lat="42.84095" lon="0.31651">
        <ele>1505.08</ele>
        <time>2017-12-17T10:36:07Z</time>
      </trkpt>
      <trkpt lat="42.84099" lon="0.31648">
        <ele>1506.52</ele>
        <time>2017-12-17T10:36:18Z</time>
      </trkpt>
      <trkpt lat="42.84104" lon="0.31643">
        <ele>1508.45</ele>
        <time>2017-12-17T10:36:30Z</time>
      </trkpt>
      <trkpt lat="42.84107" lon="0.31638">
        <ele>1509.41</ele>
        <time>2017-12-17T10:36:41Z</time>
      </trkpt>
      <trkpt lat="42.84109" lon="0.31635">
        <ele>1509.89</ele>
        <time>2017-12-17T10:36:46Z</time>
      </trkpt>
      <trkpt lat="42.84113" lon="0.31628">
        <ele>1510.85</ele>
        <time>2017-12-17T10:37:00Z</time>
      </trkpt>
      <trkpt lat="42.84114" lon="0.3162">
        <ele>1512.29</ele>
        <time>2017-12-17T10:37:12Z</time>
      </trkpt>
      <trkpt lat="42.84118" lon="0.31616">
        <ele>1514.21</ele>
        <time>2017-12-17T10:37:24Z</time>
      </trkpt>
      <trkpt lat="42.84122" lon="0.31611">
        <ele>1515.18</ele>
        <time>2017-12-17T10:37:37Z</time>
      </trkpt>
      <trkpt lat="42.84125" lon="0.316">
        <ele>1515.66</ele>
        <time>2017-12-17T10:37:49Z</time>
      </trkpt>
      <trkpt lat="42.84129" lon="0.31592">
        <ele>1516.62</ele>
        <time>2017-12-17T10:38:02Z</time>
      </trkpt>
      <trkpt lat="42.8413" lon="0.31586">
        <ele>1518.06</ele>
        <time>2017-12-17T10:38:14Z</time>
      </trkpt>
      <trkpt lat="42.84132" lon="0.3158">
        <ele>1519.5</ele>
        <time>2017-12-17T10:38:26Z</time>
      </trkpt>
      <trkpt lat="42.84136" lon="0.31575">
        <ele>1520.46</ele>
        <time>2017-12-17T10:38:38Z</time>
      </trkpt>
      <trkpt lat="42.84137" lon="0.31568">
        <ele>1521.42</ele>
        <time>2017-12-17T10:38:49Z</time>
      </trkpt>
      <trkpt lat="42.84136" lon="0.31556">
        <ele>1523.35</ele>
        <time>2017-12-17T10:39:04Z</time>
      </trkpt>
      <trkpt lat="42.84137" lon="0.3155">
        <ele>1524.79</ele>
        <time>2017-12-17T10:39:17Z</time>
      </trkpt>
      <trkpt lat="42.84137" lon="0.31541">
        <ele>1526.71</ele>
        <time>2017-12-17T10:39:30Z</time>
      </trkpt>
      <trkpt lat="42.84137" lon="0.31535">
        <ele>1528.15</ele>
        <time>2017-12-17T10:39:42Z</time>
      </trkpt>
      <trkpt lat="42.84136" lon="0.31529">
        <ele>1529.11</ele>
        <time>2017-12-17T10:39:52Z</time>
      </trkpt>
      <trkpt lat="42.84136" lon="0.31522">
        <ele>1531.04</ele>
        <time>2017-12-17T10:40:04Z</time>
      </trkpt>
      <trkpt lat="42.84134" lon="0.31513">
        <ele>1532</ele>
        <time>2017-12-17T10:40:17Z</time>
      </trkpt>
      <trkpt lat="42.84133" lon="0.31512">
        <ele>1532.96</ele>
        <time>2017-12-17T10:40:37Z</time>
      </trkpt>
      <trkpt lat="42.84135" lon="0.31513">
        <ele>1532.96</ele>
        <time>2017-12-17T10:41:02Z</time>
      </trkpt>
      <trkpt lat="42.84135" lon="0.31515">
        <ele>1532.96</ele>
        <time>2017-12-17T10:41:24Z</time>
      </trkpt>
      <trkpt lat="42.84134" lon="0.31507">
        <ele>1534.4</ele>
        <time>2017-12-17T10:41:34Z</time>
      </trkpt>
      <trkpt lat="42.84134" lon="0.31506">
        <ele>1534.4</ele>
        <time>2017-12-17T10:41:35Z</time>
      </trkpt>
      <trkpt lat="42.84133" lon="0.31497">
        <ele>1535.36</ele>
        <time>2017-12-17T10:41:45Z</time>
      </trkpt>
      <trkpt lat="42.84133" lon="0.31497">
        <ele>1536.32</ele>
        <time>2017-12-17T10:41:56Z</time>
      </trkpt>
      <trkpt lat="42.84134" lon="0.31496">
        <ele>1536.32</ele>
        <time>2017-12-17T10:41:58Z</time>
      </trkpt>
      <trkpt lat="42.84132" lon="0.31492">
        <ele>1536.32</ele>
        <time>2017-12-17T10:42:01Z</time>
      </trkpt>
      <trkpt lat="42.84131" lon="0.31488">
        <ele>1537.77</ele>
        <time>2017-12-17T10:42:10Z</time>
      </trkpt>
      <trkpt lat="42.84128" lon="0.31486">
        <ele>1537.77</ele>
        <time>2017-12-17T10:42:33Z</time>
      </trkpt>
      <trkpt lat="42.84127" lon="0.31481">
        <ele>1538.25</ele>
        <time>2017-12-17T10:42:42Z</time>
      </trkpt>
      <trkpt lat="42.84128" lon="0.31479">
        <ele>1538.73</ele>
        <time>2017-12-17T10:42:55Z</time>
      </trkpt>
      <trkpt lat="42.84128" lon="0.31477">
        <ele>1538.73</ele>
        <time>2017-12-17T10:43:10Z</time>
      </trkpt>
      <trkpt lat="42.84125" lon="0.31471">
        <ele>1538.73</ele>
        <time>2017-12-17T10:43:36Z</time>
      </trkpt>
      <trkpt lat="42.84125" lon="0.31473">
        <ele>1539.21</ele>
        <time>2017-12-17T10:44:02Z</time>
      </trkpt>
      <trkpt lat="42.84127" lon="0.31476">
        <ele>1539.21</ele>
        <time>2017-12-17T10:44:06Z</time>
      </trkpt>
      <trkpt lat="42.84136" lon="0.31475">
        <ele>1540.17</ele>
        <time>2017-12-17T10:44:17Z</time>
      </trkpt>
      <trkpt lat="42.84144" lon="0.31474">
        <ele>1542.57</ele>
        <time>2017-12-17T10:44:31Z</time>
      </trkpt>
      <trkpt lat="42.84148" lon="0.31474">
        <ele>1544.01</ele>
        <time>2017-12-17T10:44:44Z</time>
      </trkpt>
      <trkpt lat="42.84152" lon="0.31474">
        <ele>1544.98</ele>
        <time>2017-12-17T10:45:09Z</time>
      </trkpt>
      <trkpt lat="42.84157" lon="0.31471">
        <ele>1546.42</ele>
        <time>2017-12-17T10:45:21Z</time>
      </trkpt>
      <trkpt lat="42.84164" lon="0.31469">
        <ele>1548.34</ele>
        <time>2017-12-17T10:45:33Z</time>
      </trkpt>
      <trkpt lat="42.84169" lon="0.31465">
        <ele>1550.26</ele>
        <time>2017-12-17T10:45:47Z</time>
      </trkpt>
      <trkpt lat="42.84172" lon="0.3146">
        <ele>1552.19</ele>
        <time>2017-12-17T10:46:01Z</time>
      </trkpt>
      <trkpt lat="42.84173" lon="0.31454">
        <ele>1553.15</ele>
        <time>2017-12-17T10:46:12Z</time>
      </trkpt>
      <trkpt lat="42.84173" lon="0.31447">
        <ele>1555.07</ele>
        <time>2017-12-17T10:46:25Z</time>
      </trkpt>
      <trkpt lat="42.84175" lon="0.31439">
        <ele>1556.03</ele>
        <time>2017-12-17T10:46:36Z</time>
      </trkpt>
      <trkpt lat="42.84175" lon="0.31432">
        <ele>1557.47</ele>
        <time>2017-12-17T10:46:48Z</time>
      </trkpt>
      <trkpt lat="42.84174" lon="0.31426">
        <ele>1558.92</ele>
        <time>2017-12-17T10:46:59Z</time>
      </trkpt>
      <trkpt lat="42.84173" lon="0.31419">
        <ele>1560.84</ele>
        <time>2017-12-17T10:47:13Z</time>
      </trkpt>
      <trkpt lat="42.84174" lon="0.31412">
        <ele>1562.28</ele>
        <time>2017-12-17T10:47:25Z</time>
      </trkpt>
      <trkpt lat="42.84175" lon="0.31406">
        <ele>1563.72</ele>
        <time>2017-12-17T10:47:36Z</time>
      </trkpt>
      <trkpt lat="42.84176" lon="0.31399">
        <ele>1565.64</ele>
        <time>2017-12-17T10:47:48Z</time>
      </trkpt>
      <trkpt lat="42.84178" lon="0.31393">
        <ele>1566.61</ele>
        <time>2017-12-17T10:48:03Z</time>
      </trkpt>
      <trkpt lat="42.84181" lon="0.3139">
        <ele>1568.53</ele>
        <time>2017-12-17T10:48:15Z</time>
      </trkpt>
      <trkpt lat="42.84187" lon="0.3139">
        <ele>1569.97</ele>
        <time>2017-12-17T10:48:29Z</time>
      </trkpt>
      <trkpt lat="42.84191" lon="0.31388">
        <ele>1570.93</ele>
        <time>2017-12-17T10:48:41Z</time>
      </trkpt>
      <trkpt lat="42.84193" lon="0.31385">
        <ele>1572.37</ele>
        <time>2017-12-17T10:48:52Z</time>
      </trkpt>
      <trkpt lat="42.84194" lon="0.3138">
        <ele>1574.3</ele>
        <time>2017-12-17T10:49:06Z</time>
      </trkpt>
      <trkpt lat="42.84195" lon="0.31376">
        <ele>1575.74</ele>
        <time>2017-12-17T10:49:17Z</time>
      </trkpt>
      <trkpt lat="42.84197" lon="0.31372">
        <ele>1577.18</ele>
        <time>2017-12-17T10:49:30Z</time>
      </trkpt>
      <trkpt lat="42.84198" lon="0.31366">
        <ele>1579.58</ele>
        <time>2017-12-17T10:49:43Z</time>
      </trkpt>
      <trkpt lat="42.842" lon="0.31362">
        <ele>1580.54</ele>
        <time>2017-12-17T10:49:54Z</time>
      </trkpt>
      <trkpt lat="42.842" lon="0.31357">
        <ele>1581.99</ele>
        <time>2017-12-17T10:50:06Z</time>
      </trkpt>
      <trkpt lat="42.842" lon="0.31352">
        <ele>1582.95</ele>
        <time>2017-12-17T10:50:18Z</time>
      </trkpt>
      <trkpt lat="42.842" lon="0.31348">
        <ele>1583.91</ele>
        <time>2017-12-17T10:50:29Z</time>
      </trkpt>
      <trkpt lat="42.84203" lon="0.31345">
        <ele>1585.35</ele>
        <time>2017-12-17T10:50:41Z</time>
      </trkpt>
      <trkpt lat="42.84206" lon="0.31343">
        <ele>1586.31</ele>
        <time>2017-12-17T10:50:51Z</time>
      </trkpt>
      <trkpt lat="42.8421" lon="0.31341">
        <ele>1587.27</ele>
        <time>2017-12-17T10:51:03Z</time>
      </trkpt>
      <trkpt lat="42.84215" lon="0.31339">
        <ele>1589.2</ele>
        <time>2017-12-17T10:51:15Z</time>
      </trkpt>
      <trkpt lat="42.84217" lon="0.31339">
        <ele>1589.2</ele>
        <time>2017-12-17T10:51:19Z</time>
      </trkpt>
      <trkpt lat="42.84222" lon="0.31337">
        <ele>1590.64</ele>
        <time>2017-12-17T10:51:32Z</time>
      </trkpt>
      <trkpt lat="42.84227" lon="0.31335">
        <ele>1592.56</ele>
        <time>2017-12-17T10:51:46Z</time>
      </trkpt>
      <trkpt lat="42.84231" lon="0.31333">
        <ele>1594</ele>
        <time>2017-12-17T10:51:58Z</time>
      </trkpt>
      <trkpt lat="42.84236" lon="0.31328">
        <ele>1594.96</ele>
        <time>2017-12-17T10:52:11Z</time>
      </trkpt>
      <trkpt lat="42.8424" lon="0.31325">
        <ele>1596.41</ele>
        <time>2017-12-17T10:52:23Z</time>
      </trkpt>
      <trkpt lat="42.84243" lon="0.31323">
        <ele>1597.37</ele>
        <time>2017-12-17T10:52:36Z</time>
      </trkpt>
      <trkpt lat="42.84243" lon="0.31322">
        <ele>1597.37</ele>
        <time>2017-12-17T10:52:59Z</time>
      </trkpt>
      <trkpt lat="42.84247" lon="0.3132">
        <ele>1597.85</ele>
        <time>2017-12-17T10:53:09Z</time>
      </trkpt>
      <trkpt lat="42.84252" lon="0.31313">
        <ele>1600.25</ele>
        <time>2017-12-17T10:53:22Z</time>
      </trkpt>
      <trkpt lat="42.84256" lon="0.31307">
        <ele>1601.69</ele>
        <time>2017-12-17T10:53:35Z</time>
      </trkpt>
      <trkpt lat="42.8426" lon="0.313">
        <ele>1603.14</ele>
        <time>2017-12-17T10:53:48Z</time>
      </trkpt>
      <trkpt lat="42.84264" lon="0.31293">
        <ele>1604.58</ele>
        <time>2017-12-17T10:54:01Z</time>
      </trkpt>
      <trkpt lat="42.84271" lon="0.31284">
        <ele>1606.02</ele>
        <time>2017-12-17T10:54:17Z</time>
      </trkpt>
      <trkpt lat="42.84275" lon="0.31276">
        <ele>1606.98</ele>
        <time>2017-12-17T10:54:28Z</time>
      </trkpt>
      <trkpt lat="42.8428" lon="0.31268">
        <ele>1607.46</ele>
        <time>2017-12-17T10:54:41Z</time>
      </trkpt>
      <trkpt lat="42.8428" lon="0.31266">
        <ele>1607.94</ele>
        <time>2017-12-17T10:54:44Z</time>
      </trkpt>
      <trkpt lat="42.84277" lon="0.31256">
        <ele>1608.9</ele>
        <time>2017-12-17T10:54:58Z</time>
      </trkpt>
      <trkpt lat="42.84275" lon="0.31249">
        <ele>1609.86</ele>
        <time>2017-12-17T10:55:10Z</time>
      </trkpt>
      <trkpt lat="42.84276" lon="0.31241">
        <ele>1611.31</ele>
        <time>2017-12-17T10:55:22Z</time>
      </trkpt>
      <trkpt lat="42.84279" lon="0.31241">
        <ele>1611.31</ele>
        <time>2017-12-17T10:55:46Z</time>
      </trkpt>
      <trkpt lat="42.84278" lon="0.3124">
        <ele>1612.27</ele>
        <time>2017-12-17T10:56:07Z</time>
      </trkpt>
      <trkpt lat="42.84279" lon="0.31241">
        <ele>1612.27</ele>
        <time>2017-12-17T10:56:36Z</time>
      </trkpt>
      <trkpt lat="42.84279" lon="0.3124">
        <ele>1612.27</ele>
        <time>2017-12-17T10:57:01Z</time>
      </trkpt>
      <trkpt lat="42.84278" lon="0.31239">
        <ele>1612.27</ele>
        <time>2017-12-17T10:57:30Z</time>
      </trkpt>
      <trkpt lat="42.84276" lon="0.31234">
        <ele>1612.27</ele>
        <time>2017-12-17T10:57:48Z</time>
      </trkpt>
      <trkpt lat="42.84272" lon="0.31226">
        <ele>1612.27</ele>
        <time>2017-12-17T10:57:58Z</time>
      </trkpt>
      <trkpt lat="42.84264" lon="0.31215">
        <ele>1613.71</ele>
        <time>2017-12-17T10:58:12Z</time>
      </trkpt>
      <trkpt lat="42.8426" lon="0.31208">
        <ele>1614.67</ele>
        <time>2017-12-17T10:58:24Z</time>
      </trkpt>
      <trkpt lat="42.84255" lon="0.31202">
        <ele>1615.15</ele>
        <time>2017-12-17T10:58:37Z</time>
      </trkpt>
      <trkpt lat="42.84253" lon="0.31199">
        <ele>1616.11</ele>
        <time>2017-12-17T10:58:50Z</time>
      </trkpt>
      <trkpt lat="42.84255" lon="0.31198">
        <ele>1616.11</ele>
        <time>2017-12-17T10:59:05Z</time>
      </trkpt>
      <trkpt lat="42.84255" lon="0.31196">
        <ele>1616.11</ele>
        <time>2017-12-17T10:59:25Z</time>
      </trkpt>
      <trkpt lat="42.84248" lon="0.31187">
        <ele>1618.04</ele>
        <time>2017-12-17T10:59:40Z</time>
      </trkpt>
      <trkpt lat="42.84241" lon="0.31179">
        <ele>1619.48</ele>
        <time>2017-12-17T10:59:53Z</time>
      </trkpt>
      <trkpt lat="42.84239" lon="0.31177">
        <ele>1619.96</ele>
        <time>2017-12-17T10:59:57Z</time>
      </trkpt>
      <trkpt lat="42.84235" lon="0.31175">
        <ele>1619.96</ele>
        <time>2017-12-17T11:00:04Z</time>
      </trkpt>
      <trkpt lat="42.84229" lon="0.31169">
        <ele>1621.88</ele>
        <time>2017-12-17T11:00:15Z</time>
      </trkpt>
      <trkpt lat="42.84224" lon="0.31165">
        <ele>1623.32</ele>
        <time>2017-12-17T11:00:27Z</time>
      </trkpt>
      <trkpt lat="42.8422" lon="0.31157">
        <ele>1624.28</ele>
        <time>2017-12-17T11:00:38Z</time>
      </trkpt>
      <trkpt lat="42.84217" lon="0.31149">
        <ele>1625.73</ele>
        <time>2017-12-17T11:00:49Z</time>
      </trkpt>
      <trkpt lat="42.84216" lon="0.31148">
        <ele>1626.21</ele>
        <time>2017-12-17T11:00:52Z</time>
      </trkpt>
      <trkpt lat="42.84213" lon="0.31139">
        <ele>1627.65</ele>
        <time>2017-12-17T11:01:04Z</time>
      </trkpt>
      <trkpt lat="42.84212" lon="0.31136">
        <ele>1628.61</ele>
        <time>2017-12-17T11:01:14Z</time>
      </trkpt>
      <trkpt lat="42.84212" lon="0.31134">
        <ele>1629.09</ele>
        <time>2017-12-17T11:01:29Z</time>
      </trkpt>
      <trkpt lat="42.8421" lon="0.31131">
        <ele>1629.57</ele>
        <time>2017-12-17T11:01:46Z</time>
      </trkpt>
      <trkpt lat="42.84208" lon="0.31125">
        <ele>1630.05</ele>
        <time>2017-12-17T11:01:56Z</time>
      </trkpt>
      <trkpt lat="42.84206" lon="0.31121">
        <ele>1630.53</ele>
        <time>2017-12-17T11:02:05Z</time>
      </trkpt>
      <trkpt lat="42.84202" lon="0.31111">
        <ele>1631.49</ele>
        <time>2017-12-17T11:02:18Z</time>
      </trkpt>
      <trkpt lat="42.842" lon="0.31107">
        <ele>1631.98</ele>
        <time>2017-12-17T11:02:31Z</time>
      </trkpt>
      <trkpt lat="42.84198" lon="0.31104">
        <ele>1632.46</ele>
        <time>2017-12-17T11:02:53Z</time>
      </trkpt>
      <trkpt lat="42.84198" lon="0.31103">
        <ele>1632.46</ele>
        <time>2017-12-17T11:02:57Z</time>
      </trkpt>
      <trkpt lat="42.84197" lon="0.31098">
        <ele>1632.46</ele>
        <time>2017-12-17T11:03:02Z</time>
      </trkpt>
      <trkpt lat="42.84193" lon="0.31091">
        <ele>1633.42</ele>
        <time>2017-12-17T11:03:11Z</time>
      </trkpt>
      <trkpt lat="42.8419" lon="0.3108">
        <ele>1634.86</ele>
        <time>2017-12-17T11:03:24Z</time>
      </trkpt>
      <trkpt lat="42.8419" lon="0.31074">
        <ele>1634.86</ele>
        <time>2017-12-17T11:03:38Z</time>
      </trkpt>
      <trkpt lat="42.84188" lon="0.31068">
        <ele>1635.82</ele>
        <time>2017-12-17T11:03:50Z</time>
      </trkpt>
      <trkpt lat="42.84188" lon="0.31069">
        <ele>1635.82</ele>
        <time>2017-12-17T11:04:11Z</time>
      </trkpt>
      <trkpt lat="42.84188" lon="0.3107">
        <ele>1635.82</ele>
        <time>2017-12-17T11:04:30Z</time>
      </trkpt>
      <trkpt lat="42.84188" lon="0.31061">
        <ele>1635.82</ele>
        <time>2017-12-17T11:04:43Z</time>
      </trkpt>
      <trkpt lat="42.84187" lon="0.31055">
        <ele>1635.82</ele>
        <time>2017-12-17T11:04:47Z</time>
      </trkpt>
      <trkpt lat="42.84187" lon="0.31052">
        <ele>1636.3</ele>
        <time>2017-12-17T11:04:51Z</time>
      </trkpt>
      <trkpt lat="42.84186" lon="0.31038">
        <ele>1636.78</ele>
        <time>2017-12-17T11:05:04Z</time>
      </trkpt>
      <trkpt lat="42.84186" lon="0.31031">
        <ele>1637.26</ele>
        <time>2017-12-17T11:05:15Z</time>
      </trkpt>
      <trkpt lat="42.84184" lon="0.31023">
        <ele>1638.22</ele>
        <time>2017-12-17T11:05:31Z</time>
      </trkpt>
      <trkpt lat="42.84183" lon="0.31018">
        <ele>1638.22</ele>
        <time>2017-12-17T11:05:38Z</time>
      </trkpt>
      <trkpt lat="42.8418" lon="0.31012">
        <ele>1638.7</ele>
        <time>2017-12-17T11:05:44Z</time>
      </trkpt>
      <trkpt lat="42.84171" lon="0.3101">
        <ele>1640.15</ele>
        <time>2017-12-17T11:05:56Z</time>
      </trkpt>
      <trkpt lat="42.84167" lon="0.31007">
        <ele>1641.11</ele>
        <time>2017-12-17T11:06:10Z</time>
      </trkpt>
      <trkpt lat="42.84159" lon="0.31002">
        <ele>1642.55</ele>
        <time>2017-12-17T11:06:22Z</time>
      </trkpt>
      <trkpt lat="42.84151" lon="0.30997">
        <ele>1643.51</ele>
        <time>2017-12-17T11:06:35Z</time>
      </trkpt>
      <trkpt lat="42.8415" lon="0.30995">
        <ele>1643.51</ele>
        <time>2017-12-17T11:06:37Z</time>
      </trkpt>
      <trkpt lat="42.84149" lon="0.30993">
        <ele>1643.99</ele>
        <time>2017-12-17T11:06:39Z</time>
      </trkpt>
      <trkpt lat="42.84146" lon="0.3099">
        <ele>1644.47</ele>
        <time>2017-12-17T11:06:46Z</time>
      </trkpt>
      <trkpt lat="42.84141" lon="0.30985">
        <ele>1644.95</ele>
        <time>2017-12-17T11:06:54Z</time>
      </trkpt>
      <trkpt lat="42.84136" lon="0.30975">
        <ele>1645.91</ele>
        <time>2017-12-17T11:07:08Z</time>
      </trkpt>
      <trkpt lat="42.84132" lon="0.30966">
        <ele>1647.36</ele>
        <time>2017-12-17T11:07:21Z</time>
      </trkpt>
      <trkpt lat="42.8413" lon="0.3096">
        <ele>1647.84</ele>
        <time>2017-12-17T11:07:38Z</time>
      </trkpt>
      <trkpt lat="42.84129" lon="0.30961">
        <ele>1647.84</ele>
        <time>2017-12-17T11:07:48Z</time>
      </trkpt>
      <trkpt lat="42.84127" lon="0.30957">
        <ele>1648.32</ele>
        <time>2017-12-17T11:07:58Z</time>
      </trkpt>
      <trkpt lat="42.84126" lon="0.30957">
        <ele>1648.32</ele>
        <time>2017-12-17T11:08:30Z</time>
      </trkpt>
      <trkpt lat="42.84123" lon="0.30952">
        <ele>1648.8</ele>
        <time>2017-12-17T11:08:44Z</time>
      </trkpt>
      <trkpt lat="42.84123" lon="0.30951">
        <ele>1648.8</ele>
        <time>2017-12-17T11:09:06Z</time>
      </trkpt>
      <trkpt lat="42.84124" lon="0.30953">
        <ele>1648.32</ele>
        <time>2017-12-17T11:09:22Z</time>
      </trkpt>
      <trkpt lat="42.84124" lon="0.30952">
        <ele>1648.32</ele>
        <time>2017-12-17T11:09:58Z</time>
      </trkpt>
      <trkpt lat="42.84124" lon="0.30952">
        <ele>1648.32</ele>
        <time>2017-12-17T11:10:12Z</time>
      </trkpt>
      <trkpt lat="42.84125" lon="0.30952">
        <ele>1647.84</ele>
        <time>2017-12-17T11:10:40Z</time>
      </trkpt>
      <trkpt lat="42.84124" lon="0.30953">
        <ele>1647.84</ele>
        <time>2017-12-17T11:11:15Z</time>
      </trkpt>
      <trkpt lat="42.84125" lon="0.30952">
        <ele>1647.36</ele>
        <time>2017-12-17T11:11:27Z</time>
      </trkpt>
      <trkpt lat="42.84127" lon="0.30954">
        <ele>1646.4</ele>
        <time>2017-12-17T11:11:41Z</time>
      </trkpt>
      <trkpt lat="42.84127" lon="0.30953">
        <ele>1645.43</ele>
        <time>2017-12-17T11:12:16Z</time>
      </trkpt>
      <trkpt lat="42.84127" lon="0.30951">
        <ele>1645.43</ele>
        <time>2017-12-17T11:12:33Z</time>
      </trkpt>
      <trkpt lat="42.84129" lon="0.30947">
        <ele>1644.47</ele>
        <time>2017-12-17T11:12:52Z</time>
      </trkpt>
      <trkpt lat="42.84129" lon="0.30944">
        <ele>1643.99</ele>
        <time>2017-12-17T11:13:07Z</time>
      </trkpt>
      <trkpt lat="42.84128" lon="0.30943">
        <ele>1643.99</ele>
        <time>2017-12-17T11:13:15Z</time>
      </trkpt>
      <trkpt lat="42.84124" lon="0.30942">
        <ele>1643.99</ele>
        <time>2017-12-17T11:13:20Z</time>
      </trkpt>
      <trkpt lat="42.8412" lon="0.30939">
        <ele>1643.99</ele>
        <time>2017-12-17T11:13:24Z</time>
      </trkpt>
      <trkpt lat="42.84117" lon="0.30936">
        <ele>1643.99</ele>
        <time>2017-12-17T11:13:28Z</time>
      </trkpt>
      <trkpt lat="42.84112" lon="0.30929">
        <ele>1643.99</ele>
        <time>2017-12-17T11:13:36Z</time>
      </trkpt>
      <trkpt lat="42.8411" lon="0.30927">
        <ele>1643.99</ele>
        <time>2017-12-17T11:13:40Z</time>
      </trkpt>
      <trkpt lat="42.84109" lon="0.30923">
        <ele>1643.99</ele>
        <time>2017-12-17T11:13:43Z</time>
      </trkpt>
      <trkpt lat="42.84108" lon="0.30922">
        <ele>1643.99</ele>
        <time>2017-12-17T11:13:57Z</time>
      </trkpt>
      <trkpt lat="42.84107" lon="0.30911">
        <ele>1643.99</ele>
        <time>2017-12-17T11:14:17Z</time>
      </trkpt>
      <trkpt lat="42.84104" lon="0.30903">
        <ele>1643.99</ele>
        <time>2017-12-17T11:14:24Z</time>
      </trkpt>
      <trkpt lat="42.84099" lon="0.30893">
        <ele>1643.99</ele>
        <time>2017-12-17T11:14:37Z</time>
      </trkpt>
      <trkpt lat="42.84098" lon="0.30892">
        <ele>1643.99</ele>
        <time>2017-12-17T11:14:46Z</time>
      </trkpt>
      <trkpt lat="42.84098" lon="0.30892">
        <ele>1643.99</ele>
        <time>2017-12-17T11:14:58Z</time>
      </trkpt>
      <trkpt lat="42.84099" lon="0.30892">
        <ele>1643.99</ele>
        <time>2017-12-17T11:15:36Z</time>
      </trkpt>
      <trkpt lat="42.84099" lon="0.30892">
        <ele>1643.51</ele>
        <time>2017-12-17T11:16:14Z</time>
      </trkpt>
      <trkpt lat="42.84099" lon="0.30892">
        <ele>1643.51</ele>
        <time>2017-12-17T11:16:25Z</time>
      </trkpt>
      <trkpt lat="42.84099" lon="0.30891">
        <ele>1643.51</ele>
        <time>2017-12-17T11:16:41Z</time>
      </trkpt>
      <trkpt lat="42.84098" lon="0.30889">
        <ele>1643.51</ele>
        <time>2017-12-17T11:16:55Z</time>
      </trkpt>
      <trkpt lat="42.84096" lon="0.30888">
        <ele>1643.51</ele>
        <time>2017-12-17T11:16:59Z</time>
      </trkpt>
      <trkpt lat="42.84095" lon="0.30885">
        <ele>1642.55</ele>
        <time>2017-12-17T11:17:02Z</time>
      </trkpt>
      <trkpt lat="42.84091" lon="0.30875">
        <ele>1640.15</ele>
        <time>2017-12-17T11:17:11Z</time>
      </trkpt>
      <trkpt lat="42.84086" lon="0.30866">
        <ele>1638.22</ele>
        <time>2017-12-17T11:17:21Z</time>
      </trkpt>
      <trkpt lat="42.84086" lon="0.30866">
        <ele>1637.26</ele>
        <time>2017-12-17T11:17:35Z</time>
      </trkpt>
      <trkpt lat="42.84086" lon="0.30865">
        <ele>1638.7</ele>
        <time>2017-12-17T11:18:00Z</time>
      </trkpt>
      <trkpt lat="42.84084" lon="0.30861">
        <ele>1637.26</ele>
        <time>2017-12-17T11:18:04Z</time>
      </trkpt>
      <trkpt lat="42.8408" lon="0.30849">
        <ele>1635.34</ele>
        <time>2017-12-17T11:18:14Z</time>
      </trkpt>
      <trkpt lat="42.84074" lon="0.30841">
        <ele>1634.38</ele>
        <time>2017-12-17T11:18:22Z</time>
      </trkpt>
      <trkpt lat="42.8407" lon="0.30824">
        <ele>1633.42</ele>
        <time>2017-12-17T11:18:33Z</time>
      </trkpt>
      <trkpt lat="42.84067" lon="0.30819">
        <ele>1632.94</ele>
        <time>2017-12-17T11:18:37Z</time>
      </trkpt>
      <trkpt lat="42.84064" lon="0.30812">
        <ele>1631.98</ele>
        <time>2017-12-17T11:18:43Z</time>
      </trkpt>
      <trkpt lat="42.84057" lon="0.308">
        <ele>1630.05</ele>
        <time>2017-12-17T11:18:55Z</time>
      </trkpt>
      <trkpt lat="42.84051" lon="0.30791">
        <ele>1628.61</ele>
        <time>2017-12-17T11:19:06Z</time>
      </trkpt>
      <trkpt lat="42.84048" lon="0.30779">
        <ele>1627.17</ele>
        <time>2017-12-17T11:19:17Z</time>
      </trkpt>
      <trkpt lat="42.84046" lon="0.30767">
        <ele>1625.73</ele>
        <time>2017-12-17T11:19:29Z</time>
      </trkpt>
      <trkpt lat="42.84046" lon="0.30763">
        <ele>1625.25</ele>
        <time>2017-12-17T11:19:33Z</time>
      </trkpt>
      <trkpt lat="42.84045" lon="0.30757">
        <ele>1624.28</ele>
        <time>2017-12-17T11:19:39Z</time>
      </trkpt>
      <trkpt lat="42.84042" lon="0.30749">
        <ele>1624.28</ele>
        <time>2017-12-17T11:19:52Z</time>
      </trkpt>
      <trkpt lat="42.84043" lon="0.3075">
        <ele>1623.8</ele>
        <time>2017-12-17T11:20:37Z</time>
      </trkpt>
      <trkpt lat="42.84042" lon="0.30744">
        <ele>1623.8</ele>
        <time>2017-12-17T11:21:11Z</time>
      </trkpt>
      <trkpt lat="42.84038" lon="0.30735">
        <ele>1623.32</ele>
        <time>2017-12-17T11:21:18Z</time>
      </trkpt>
      <trkpt lat="42.84034" lon="0.30725">
        <ele>1622.36</ele>
        <time>2017-12-17T11:21:27Z</time>
      </trkpt>
      <trkpt lat="42.84025" lon="0.30716">
        <ele>1621.88</ele>
        <time>2017-12-17T11:21:39Z</time>
      </trkpt>
      <trkpt lat="42.84016" lon="0.30703">
        <ele>1621.4</ele>
        <time>2017-12-17T11:21:51Z</time>
      </trkpt>
      <trkpt lat="42.84012" lon="0.30697">
        <ele>1621.4</ele>
        <time>2017-12-17T11:22:02Z</time>
      </trkpt>
      <trkpt lat="42.84008" lon="0.30692">
        <ele>1620.92</ele>
        <time>2017-12-17T11:22:16Z</time>
      </trkpt>
      <trkpt lat="42.84008" lon="0.30694">
        <ele>1620.92</ele>
        <time>2017-12-17T11:22:43Z</time>
      </trkpt>
      <trkpt lat="42.84009" lon="0.30692">
        <ele>1620.92</ele>
        <time>2017-12-17T11:23:11Z</time>
      </trkpt>
      <trkpt lat="42.84006" lon="0.30691">
        <ele>1620.92</ele>
        <time>2017-12-17T11:23:15Z</time>
      </trkpt>
      <trkpt lat="42.83997" lon="0.30683">
        <ele>1621.88</ele>
        <time>2017-12-17T11:23:28Z</time>
      </trkpt>
      <trkpt lat="42.83989" lon="0.30673">
        <ele>1621.88</ele>
        <time>2017-12-17T11:23:41Z</time>
      </trkpt>
      <trkpt lat="42.83989" lon="0.30672">
        <ele>1621.88</ele>
        <time>2017-12-17T11:23:56Z</time>
      </trkpt>
      <trkpt lat="42.83989" lon="0.30672">
        <ele>1621.88</ele>
        <time>2017-12-17T11:24:25Z</time>
      </trkpt>
      <trkpt lat="42.83983" lon="0.30666">
        <ele>1621.88</ele>
        <time>2017-12-17T11:24:43Z</time>
      </trkpt>
      <trkpt lat="42.83982" lon="0.30664">
        <ele>1621.88</ele>
        <time>2017-12-17T11:24:45Z</time>
      </trkpt>
      <trkpt lat="42.83974" lon="0.30655">
        <ele>1621.88</ele>
        <time>2017-12-17T11:24:57Z</time>
      </trkpt>
      <trkpt lat="42.83969" lon="0.30653">
        <ele>1620.44</ele>
        <time>2017-12-17T11:25:04Z</time>
      </trkpt>
      <trkpt lat="42.83964" lon="0.30642">
        <ele>1619.96</ele>
        <time>2017-12-17T11:25:17Z</time>
      </trkpt>
      <trkpt lat="42.83962" lon="0.30637">
        <ele>1619.96</ele>
        <time>2017-12-17T11:25:23Z</time>
      </trkpt>
      <trkpt lat="42.83955" lon="0.30636">
        <ele>1619.96</ele>
        <time>2017-12-17T11:25:33Z</time>
      </trkpt>
      <trkpt lat="42.83953" lon="0.30637">
        <ele>1620.92</ele>
        <time>2017-12-17T11:25:35Z</time>
      </trkpt>
      <trkpt lat="42.83945" lon="0.30633">
        <ele>1622.36</ele>
        <time>2017-12-17T11:25:49Z</time>
      </trkpt>
      <trkpt lat="42.83943" lon="0.3063">
        <ele>1622.36</ele>
        <time>2017-12-17T11:25:53Z</time>
      </trkpt>
      <trkpt lat="42.83936" lon="0.30616">
        <ele>1622.84</ele>
        <time>2017-12-17T11:26:06Z</time>
      </trkpt>
      <trkpt lat="42.83935" lon="0.30604">
        <ele>1622.84</ele>
        <time>2017-12-17T11:26:17Z</time>
      </trkpt>
      <trkpt lat="42.83934" lon="0.30596">
        <ele>1623.32</ele>
        <time>2017-12-17T11:26:27Z</time>
      </trkpt>
      <trkpt lat="42.83931" lon="0.30585">
        <ele>1624.28</ele>
        <time>2017-12-17T11:26:37Z</time>
      </trkpt>
      <trkpt lat="42.83925" lon="0.30577">
        <ele>1624.77</ele>
        <time>2017-12-17T11:26:49Z</time>
      </trkpt>
      <trkpt lat="42.83922" lon="0.30569">
        <ele>1624.77</ele>
        <time>2017-12-17T11:26:56Z</time>
      </trkpt>
      <trkpt lat="42.8392" lon="0.30561">
        <ele>1624.77</ele>
        <time>2017-12-17T11:27:04Z</time>
      </trkpt>
      <trkpt lat="42.83918" lon="0.30558">
        <ele>1623.32</ele>
        <time>2017-12-17T11:27:07Z</time>
      </trkpt>
      <trkpt lat="42.83917" lon="0.30547">
        <ele>1622.36</ele>
        <time>2017-12-17T11:27:22Z</time>
      </trkpt>
      <trkpt lat="42.83915" lon="0.30538">
        <ele>1621.88</ele>
        <time>2017-12-17T11:27:31Z</time>
      </trkpt>
      <trkpt lat="42.83914" lon="0.30536">
        <ele>1621.88</ele>
        <time>2017-12-17T11:27:33Z</time>
      </trkpt>
      <trkpt lat="42.83912" lon="0.30526">
        <ele>1620.92</ele>
        <time>2017-12-17T11:27:46Z</time>
      </trkpt>
      <trkpt lat="42.83911" lon="0.30523">
        <ele>1620.92</ele>
        <time>2017-12-17T11:28:12Z</time>
      </trkpt>
      <trkpt lat="42.83911" lon="0.3052">
        <ele>1619.96</ele>
        <time>2017-12-17T11:28:21Z</time>
      </trkpt>
      <trkpt lat="42.83907" lon="0.30506">
        <ele>1618.04</ele>
        <time>2017-12-17T11:28:33Z</time>
      </trkpt>
      <trkpt lat="42.83905" lon="0.30496">
        <ele>1616.59</ele>
        <time>2017-12-17T11:28:41Z</time>
      </trkpt>
      <trkpt lat="42.83905" lon="0.30488">
        <ele>1615.63</ele>
        <time>2017-12-17T11:28:47Z</time>
      </trkpt>
      <trkpt lat="42.83903" lon="0.30479">
        <ele>1615.15</ele>
        <time>2017-12-17T11:29:02Z</time>
      </trkpt>
      <trkpt lat="42.83904" lon="0.30475">
        <ele>1614.67</ele>
        <time>2017-12-17T11:29:15Z</time>
      </trkpt>
      <trkpt lat="42.83902" lon="0.3047">
        <ele>1614.67</ele>
        <time>2017-12-17T11:29:19Z</time>
      </trkpt>
      <trkpt lat="42.83902" lon="0.30465">
        <ele>1614.19</ele>
        <time>2017-12-17T11:29:24Z</time>
      </trkpt>
      <trkpt lat="42.83903" lon="0.3046">
        <ele>1613.71</ele>
        <time>2017-12-17T11:29:36Z</time>
      </trkpt>
      <trkpt lat="42.83904" lon="0.3046">
        <ele>1613.71</ele>
        <time>2017-12-17T11:29:42Z</time>
      </trkpt>
      <trkpt lat="42.83903" lon="0.30457">
        <ele>1613.23</ele>
        <time>2017-12-17T11:29:45Z</time>
      </trkpt>
      <trkpt lat="42.83899" lon="0.30443">
        <ele>1613.23</ele>
        <time>2017-12-17T11:29:57Z</time>
      </trkpt>
      <trkpt lat="42.83898" lon="0.30439">
        <ele>1613.23</ele>
        <time>2017-12-17T11:30:11Z</time>
      </trkpt>
      <trkpt lat="42.83898" lon="0.30432">
        <ele>1612.75</ele>
        <time>2017-12-17T11:30:20Z</time>
      </trkpt>
      <trkpt lat="42.83897" lon="0.3043">
        <ele>1612.75</ele>
        <time>2017-12-17T11:30:22Z</time>
      </trkpt>
      <trkpt lat="42.83897" lon="0.30424">
        <ele>1612.75</ele>
        <time>2017-12-17T11:30:27Z</time>
      </trkpt>
      <trkpt lat="42.83895" lon="0.30415">
        <ele>1612.75</ele>
        <time>2017-12-17T11:30:36Z</time>
      </trkpt>
      <trkpt lat="42.83894" lon="0.30402">
        <ele>1612.27</ele>
        <time>2017-12-17T11:30:47Z</time>
      </trkpt>
      <trkpt lat="42.83893" lon="0.30388">
        <ele>1611.79</ele>
        <time>2017-12-17T11:30:58Z</time>
      </trkpt>
      <trkpt lat="42.83892" lon="0.30383">
        <ele>1611.79</ele>
        <time>2017-12-17T11:31:03Z</time>
      </trkpt>
      <trkpt lat="42.83891" lon="0.30375">
        <ele>1612.27</ele>
        <time>2017-12-17T11:31:16Z</time>
      </trkpt>
      <trkpt lat="42.83889" lon="0.30371">
        <ele>1612.27</ele>
        <time>2017-12-17T11:31:27Z</time>
      </trkpt>
      <trkpt lat="42.83889" lon="0.30366">
        <ele>1612.27</ele>
        <time>2017-12-17T11:31:43Z</time>
      </trkpt>
      <trkpt lat="42.83888" lon="0.30356">
        <ele>1612.27</ele>
        <time>2017-12-17T11:31:57Z</time>
      </trkpt>
      <trkpt lat="42.83888" lon="0.30345">
        <ele>1613.71</ele>
        <time>2017-12-17T11:32:09Z</time>
      </trkpt>
      <trkpt lat="42.83887" lon="0.30335">
        <ele>1615.15</ele>
        <time>2017-12-17T11:32:22Z</time>
      </trkpt>
      <trkpt lat="42.83886" lon="0.30331">
        <ele>1615.63</ele>
        <time>2017-12-17T11:32:37Z</time>
      </trkpt>
      <trkpt lat="42.83885" lon="0.30319">
        <ele>1617.56</ele>
        <time>2017-12-17T11:32:51Z</time>
      </trkpt>
      <trkpt lat="42.83884" lon="0.30315">
        <ele>1619.48</ele>
        <time>2017-12-17T11:33:03Z</time>
      </trkpt>
      <trkpt lat="42.83883" lon="0.30309">
        <ele>1620.92</ele>
        <time>2017-12-17T11:33:15Z</time>
      </trkpt>
      <trkpt lat="42.83883" lon="0.30304">
        <ele>1622.36</ele>
        <time>2017-12-17T11:33:26Z</time>
      </trkpt>
      <trkpt lat="42.83883" lon="0.30299">
        <ele>1623.8</ele>
        <time>2017-12-17T11:33:38Z</time>
      </trkpt>
      <trkpt lat="42.83882" lon="0.30293">
        <ele>1625.25</ele>
        <time>2017-12-17T11:33:51Z</time>
      </trkpt>
      <trkpt lat="42.83881" lon="0.30289">
        <ele>1626.69</ele>
        <time>2017-12-17T11:34:03Z</time>
      </trkpt>
      <trkpt lat="42.8388" lon="0.30283">
        <ele>1628.61</ele>
        <time>2017-12-17T11:34:16Z</time>
      </trkpt>
      <trkpt lat="42.83878" lon="0.30277">
        <ele>1629.57</ele>
        <time>2017-12-17T11:34:27Z</time>
      </trkpt>
      <trkpt lat="42.83877" lon="0.30275">
        <ele>1630.53</ele>
        <time>2017-12-17T11:34:41Z</time>
      </trkpt>
      <trkpt lat="42.83874" lon="0.30269">
        <ele>1631.01</ele>
        <time>2017-12-17T11:34:51Z</time>
      </trkpt>
      <trkpt lat="42.8387" lon="0.30261">
        <ele>1631.98</ele>
        <time>2017-12-17T11:35:03Z</time>
      </trkpt>
      <trkpt lat="42.83864" lon="0.30254">
        <ele>1632.94</ele>
        <time>2017-12-17T11:35:16Z</time>
      </trkpt>
      <trkpt lat="42.83865" lon="0.30255">
        <ele>1633.42</ele>
        <time>2017-12-17T11:35:34Z</time>
      </trkpt>
      <trkpt lat="42.83866" lon="0.30256">
        <ele>1632.94</ele>
        <time>2017-12-17T11:36:06Z</time>
      </trkpt>
      <trkpt lat="42.83865" lon="0.30255">
        <ele>1631.98</ele>
        <time>2017-12-17T11:36:27Z</time>
      </trkpt>
      <trkpt lat="42.83864" lon="0.30254">
        <ele>1631.98</ele>
        <time>2017-12-17T11:36:58Z</time>
      </trkpt>
      <trkpt lat="42.83867" lon="0.30256">
        <ele>1631.98</ele>
        <time>2017-12-17T11:37:24Z</time>
      </trkpt>
      <trkpt lat="42.83864" lon="0.30254">
        <ele>1631.98</ele>
        <time>2017-12-17T11:37:36Z</time>
      </trkpt>
      <trkpt lat="42.83866" lon="0.30256">
        <ele>1631.98</ele>
        <time>2017-12-17T11:38:00Z</time>
      </trkpt>
      <trkpt lat="42.83867" lon="0.30255">
        <ele>1632.94</ele>
        <time>2017-12-17T11:38:40Z</time>
      </trkpt>
      <trkpt lat="42.83868" lon="0.30256">
        <ele>1633.9</ele>
        <time>2017-12-17T11:39:21Z</time>
      </trkpt>
      <trkpt lat="42.83867" lon="0.30255">
        <ele>1634.38</ele>
        <time>2017-12-17T11:39:39Z</time>
      </trkpt>
      <trkpt lat="42.83863" lon="0.30253">
        <ele>1634.38</ele>
        <time>2017-12-17T11:40:09Z</time>
      </trkpt>
      <trkpt lat="42.83862" lon="0.30252">
        <ele>1634.38</ele>
        <time>2017-12-17T11:40:30Z</time>
      </trkpt>
      <trkpt lat="42.83866" lon="0.30254">
        <ele>1634.38</ele>
        <time>2017-12-17T11:41:04Z</time>
      </trkpt>
      <trkpt lat="42.83866" lon="0.30252">
        <ele>1634.38</ele>
        <time>2017-12-17T11:41:22Z</time>
      </trkpt>
      <trkpt lat="42.83868" lon="0.30251">
        <ele>1632.46</ele>
        <time>2017-12-17T11:41:50Z</time>
      </trkpt>
      <trkpt lat="42.83863" lon="0.30254">
        <ele>1632.46</ele>
        <time>2017-12-17T11:42:09Z</time>
      </trkpt>
      <trkpt lat="42.83863" lon="0.30256">
        <ele>1632.46</ele>
        <time>2017-12-17T11:42:20Z</time>
      </trkpt>
      <trkpt lat="42.83864" lon="0.30254">
        <ele>1631.98</ele>
        <time>2017-12-17T11:42:47Z</time>
      </trkpt>
      <trkpt lat="42.83863" lon="0.30253">
        <ele>1631.98</ele>
        <time>2017-12-17T11:43:01Z</time>
      </trkpt>
      <trkpt lat="42.83862" lon="0.30253">
        <ele>1631.98</ele>
        <time>2017-12-17T11:43:23Z</time>
      </trkpt>
      <trkpt lat="42.83862" lon="0.30252">
        <ele>1631.98</ele>
        <time>2017-12-17T11:43:50Z</time>
      </trkpt>
      <trkpt lat="42.83862" lon="0.30252">
        <ele>1632.94</ele>
        <time>2017-12-17T11:43:52Z</time>
      </trkpt>
      <trkpt lat="42.83861" lon="0.30249">
        <ele>1632.94</ele>
        <time>2017-12-17T11:44:15Z</time>
      </trkpt>
      <trkpt lat="42.83862" lon="0.3025">
        <ele>1632.94</ele>
        <time>2017-12-17T11:44:35Z</time>
      </trkpt>
      <trkpt lat="42.83861" lon="0.3025">
        <ele>1633.42</ele>
        <time>2017-12-17T11:44:52Z</time>
      </trkpt>
      <trkpt lat="42.83862" lon="0.30251">
        <ele>1633.9</ele>
        <time>2017-12-17T11:45:06Z</time>
      </trkpt>
      <trkpt lat="42.83861" lon="0.30251">
        <ele>1633.42</ele>
        <time>2017-12-17T11:45:14Z</time>
      </trkpt>
      <trkpt lat="42.83862" lon="0.30251">
        <ele>1634.38</ele>
        <time>2017-12-17T11:45:26Z</time>
      </trkpt>
      <trkpt lat="42.83865" lon="0.30251">
        <ele>1634.86</ele>
        <time>2017-12-17T11:45:37Z</time>
      </trkpt>
      <trkpt lat="42.83865" lon="0.3025">
        <ele>1634.86</ele>
        <time>2017-12-17T11:45:53Z</time>
      </trkpt>
      <trkpt lat="42.83865" lon="0.3025">
        <ele>1632.94</ele>
        <time>2017-12-17T11:46:06Z</time>
      </trkpt>
      <trkpt lat="42.83865" lon="0.30249">
        <ele>1632.94</ele>
        <time>2017-12-17T11:46:38Z</time>
      </trkpt>
      <trkpt lat="42.83865" lon="0.3025">
        <ele>1632.46</ele>
        <time>2017-12-17T11:47:12Z</time>
      </trkpt>
      <trkpt lat="42.83865" lon="0.3025">
        <ele>1632.46</ele>
        <time>2017-12-17T11:47:16Z</time>
      </trkpt>
      <trkpt lat="42.83866" lon="0.30251">
        <ele>1632.46</ele>
        <time>2017-12-17T11:47:28Z</time>
      </trkpt>
      <trkpt lat="42.83867" lon="0.30249">
        <ele>1632.46</ele>
        <time>2017-12-17T11:48:09Z</time>
      </trkpt>
      <trkpt lat="42.83866" lon="0.30249">
        <ele>1632.46</ele>
        <time>2017-12-17T11:48:37Z</time>
      </trkpt>
      <trkpt lat="42.83865" lon="0.3025">
        <ele>1631.49</ele>
        <time>2017-12-17T11:49:06Z</time>
      </trkpt>
      <trkpt lat="42.83864" lon="0.30249">
        <ele>1632.94</ele>
        <time>2017-12-17T11:49:16Z</time>
      </trkpt>
      <trkpt lat="42.83865" lon="0.30249">
        <ele>1632.94</ele>
        <time>2017-12-17T11:49:26Z</time>
      </trkpt>
      <trkpt lat="42.83865" lon="0.30249">
        <ele>1632.94</ele>
        <time>2017-12-17T11:49:28Z</time>
      </trkpt>
      <trkpt lat="42.83866" lon="0.30252">
        <ele>1632.94</ele>
        <time>2017-12-17T11:49:40Z</time>
      </trkpt>
      <trkpt lat="42.83865" lon="0.3025">
        <ele>1632.94</ele>
        <time>2017-12-17T11:50:00Z</time>
      </trkpt>
      <trkpt lat="42.83865" lon="0.3025">
        <ele>1632.94</ele>
        <time>2017-12-17T11:50:13Z</time>
      </trkpt>
      <trkpt lat="42.83867" lon="0.30252">
        <ele>1632.94</ele>
        <time>2017-12-17T11:50:28Z</time>
      </trkpt>
      <trkpt lat="42.83866" lon="0.3025">
        <ele>1632.94</ele>
        <time>2017-12-17T11:50:39Z</time>
      </trkpt>
      <trkpt lat="42.83864" lon="0.30249">
        <ele>1633.42</ele>
        <time>2017-12-17T11:51:13Z</time>
      </trkpt>
      <trkpt lat="42.83865" lon="0.3025">
        <ele>1633.42</ele>
        <time>2017-12-17T11:51:32Z</time>
      </trkpt>
      <trkpt lat="42.83866" lon="0.30252">
        <ele>1633.42</ele>
        <time>2017-12-17T11:51:42Z</time>
      </trkpt>
      <trkpt lat="42.83866" lon="0.30249">
        <ele>1633.42</ele>
        <time>2017-12-17T11:51:51Z</time>
      </trkpt>
      <trkpt lat="42.83866" lon="0.30249">
        <ele>1633.42</ele>
        <time>2017-12-17T11:52:21Z</time>
      </trkpt>
      <trkpt lat="42.83866" lon="0.30249">
        <ele>1633.42</ele>
        <time>2017-12-17T11:52:46Z</time>
      </trkpt>
      <trkpt lat="42.83866" lon="0.30249">
        <ele>1633.42</ele>
        <time>2017-12-17T11:53:27Z</time>
      </trkpt>
      <trkpt lat="42.83865" lon="0.3025">
        <ele>1632.94</ele>
        <time>2017-12-17T11:53:42Z</time>
      </trkpt>
      <trkpt lat="42.83863" lon="0.30251">
        <ele>1632.94</ele>
        <time>2017-12-17T11:53:52Z</time>
      </trkpt>
      <trkpt lat="42.83864" lon="0.30251">
        <ele>1632.94</ele>
        <time>2017-12-17T11:54:15Z</time>
      </trkpt>
      <trkpt lat="42.83865" lon="0.30251">
        <ele>1633.9</ele>
        <time>2017-12-17T11:54:31Z</time>
      </trkpt>
      <trkpt lat="42.83864" lon="0.30251">
        <ele>1633.9</ele>
        <time>2017-12-17T11:54:50Z</time>
      </trkpt>
      <trkpt lat="42.83865" lon="0.30251">
        <ele>1634.38</ele>
        <time>2017-12-17T11:55:02Z</time>
      </trkpt>
      <trkpt lat="42.83864" lon="0.30251">
        <ele>1634.86</ele>
        <time>2017-12-17T11:55:25Z</time>
      </trkpt>
      <trkpt lat="42.83865" lon="0.30251">
        <ele>1634.86</ele>
        <time>2017-12-17T11:55:42Z</time>
      </trkpt>
      <trkpt lat="42.83866" lon="0.30252">
        <ele>1634.86</ele>
        <time>2017-12-17T11:55:50Z</time>
      </trkpt>
      <trkpt lat="42.83865" lon="0.30251">
        <ele>1634.86</ele>
        <time>2017-12-17T11:56:10Z</time>
      </trkpt>
      <trkpt lat="42.83865" lon="0.30252">
        <ele>1634.86</ele>
        <time>2017-12-17T11:56:24Z</time>
      </trkpt>
      <trkpt lat="42.83864" lon="0.30253">
        <ele>1634.86</ele>
        <time>2017-12-17T11:56:47Z</time>
      </trkpt>
      <trkpt lat="42.83864" lon="0.30252">
        <ele>1634.38</ele>
        <time>2017-12-17T11:57:00Z</time>
      </trkpt>
      <trkpt lat="42.83862" lon="0.30252">
        <ele>1634.38</ele>
        <time>2017-12-17T11:57:32Z</time>
      </trkpt>
      <trkpt lat="42.83864" lon="0.30253">
        <ele>1634.86</ele>
        <time>2017-12-17T11:57:51Z</time>
      </trkpt>
      <trkpt lat="42.83863" lon="0.30255">
        <ele>1634.86</ele>
        <time>2017-12-17T11:58:08Z</time>
      </trkpt>
      <trkpt lat="42.83864" lon="0.30254">
        <ele>1634.86</ele>
        <time>2017-12-17T11:58:32Z</time>
      </trkpt>
      <trkpt lat="42.83862" lon="0.30253">
        <ele>1634.86</ele>
        <time>2017-12-17T11:59:01Z</time>
      </trkpt>
      <trkpt lat="42.83863" lon="0.30254">
        <ele>1634.86</ele>
        <time>2017-12-17T11:59:20Z</time>
      </trkpt>
      <trkpt lat="42.83863" lon="0.30252">
        <ele>1634.86</ele>
        <time>2017-12-17T11:59:45Z</time>
      </trkpt>
      <trkpt lat="42.83862" lon="0.30251">
        <ele>1634.86</ele>
        <time>2017-12-17T12:00:23Z</time>
      </trkpt>
      <trkpt lat="42.83862" lon="0.3025">
        <ele>1633.42</ele>
        <time>2017-12-17T12:00:57Z</time>
      </trkpt>
      <trkpt lat="42.83863" lon="0.30253">
        <ele>1633.42</ele>
        <time>2017-12-17T12:01:26Z</time>
      </trkpt>
      <trkpt lat="42.83863" lon="0.30253">
        <ele>1634.86</ele>
        <time>2017-12-17T12:02:02Z</time>
      </trkpt>
      <trkpt lat="42.83863" lon="0.30254">
        <ele>1635.34</ele>
        <time>2017-12-17T12:02:46Z</time>
      </trkpt>
      <trkpt lat="42.83862" lon="0.30253">
        <ele>1635.34</ele>
        <time>2017-12-17T12:03:23Z</time>
      </trkpt>
      <trkpt lat="42.83866" lon="0.30254">
        <ele>1635.34</ele>
        <time>2017-12-17T12:03:35Z</time>
      </trkpt>
      <trkpt lat="42.83865" lon="0.30249">
        <ele>1635.34</ele>
        <time>2017-12-17T12:03:40Z</time>
      </trkpt>
      <trkpt lat="42.83864" lon="0.30245">
        <ele>1635.34</ele>
        <time>2017-12-17T12:03:44Z</time>
      </trkpt>
      <trkpt lat="42.83863" lon="0.30235">
        <ele>1634.86</ele>
        <time>2017-12-17T12:03:51Z</time>
      </trkpt>
      <trkpt lat="42.83863" lon="0.30229">
        <ele>1634.38</ele>
        <time>2017-12-17T12:03:56Z</time>
      </trkpt>
      <trkpt lat="42.83863" lon="0.30227">
        <ele>1634.38</ele>
        <time>2017-12-17T12:03:58Z</time>
      </trkpt>
      <trkpt lat="42.83863" lon="0.30224">
        <ele>1633.9</ele>
        <time>2017-12-17T12:04:00Z</time>
      </trkpt>
      <trkpt lat="42.83864" lon="0.30211">
        <ele>1631.98</ele>
        <time>2017-12-17T12:04:09Z</time>
      </trkpt>
      <trkpt lat="42.83864" lon="0.30195">
        <ele>1631.01</ele>
        <time>2017-12-17T12:04:20Z</time>
      </trkpt>
      <trkpt lat="42.83863" lon="0.30191">
        <ele>1630.05</ele>
        <time>2017-12-17T12:04:23Z</time>
      </trkpt>
      <trkpt lat="42.83863" lon="0.30189">
        <ele>1629.09</ele>
        <time>2017-12-17T12:04:25Z</time>
      </trkpt>
      <trkpt lat="42.83863" lon="0.30186">
        <ele>1629.09</ele>
        <time>2017-12-17T12:04:27Z</time>
      </trkpt>
      <trkpt lat="42.83864" lon="0.30182">
        <ele>1628.61</ele>
        <time>2017-12-17T12:04:30Z</time>
      </trkpt>
      <trkpt lat="42.83864" lon="0.30179">
        <ele>1628.61</ele>
        <time>2017-12-17T12:04:32Z</time>
      </trkpt>
      <trkpt lat="42.83863" lon="0.30174">
        <ele>1628.13</ele>
        <time>2017-12-17T12:04:35Z</time>
      </trkpt>
      <trkpt lat="42.83863" lon="0.30166">
        <ele>1626.21</ele>
        <time>2017-12-17T12:04:41Z</time>
      </trkpt>
      <trkpt lat="42.83862" lon="0.3015">
        <ele>1624.77</ele>
        <time>2017-12-17T12:04:51Z</time>
      </trkpt>
      <trkpt lat="42.83861" lon="0.30143">
        <ele>1624.28</ele>
        <time>2017-12-17T12:04:56Z</time>
      </trkpt>
      <trkpt lat="42.83862" lon="0.30141">
        <ele>1623.32</ele>
        <time>2017-12-17T12:04:58Z</time>
      </trkpt>
      <trkpt lat="42.8386" lon="0.30125">
        <ele>1622.36</ele>
        <time>2017-12-17T12:05:10Z</time>
      </trkpt>
      <trkpt lat="42.83859" lon="0.30121">
        <ele>1621.88</ele>
        <time>2017-12-17T12:05:13Z</time>
      </trkpt>
      <trkpt lat="42.83859" lon="0.30113">
        <ele>1620.92</ele>
        <time>2017-12-17T12:05:19Z</time>
      </trkpt>
      <trkpt lat="42.83859" lon="0.30109">
        <ele>1620.92</ele>
        <time>2017-12-17T12:05:22Z</time>
      </trkpt>
      <trkpt lat="42.83859" lon="0.30103">
        <ele>1619.48</ele>
        <time>2017-12-17T12:05:26Z</time>
      </trkpt>
      <trkpt lat="42.8386" lon="0.30096">
        <ele>1619.48</ele>
        <time>2017-12-17T12:05:31Z</time>
      </trkpt>
      <trkpt lat="42.83858" lon="0.30086">
        <ele>1618.52</ele>
        <time>2017-12-17T12:05:38Z</time>
      </trkpt>
      <trkpt lat="42.83857" lon="0.30083">
        <ele>1618.04</ele>
        <time>2017-12-17T12:05:40Z</time>
      </trkpt>
      <trkpt lat="42.83856" lon="0.30075">
        <ele>1617.56</ele>
        <time>2017-12-17T12:05:45Z</time>
      </trkpt>
      <trkpt lat="42.83855" lon="0.30073">
        <ele>1617.56</ele>
        <time>2017-12-17T12:05:47Z</time>
      </trkpt>
      <trkpt lat="42.83855" lon="0.30067">
        <ele>1617.07</ele>
        <time>2017-12-17T12:05:51Z</time>
      </trkpt>
      <trkpt lat="42.83851" lon="0.30053">
        <ele>1615.63</ele>
        <time>2017-12-17T12:06:01Z</time>
      </trkpt>
      <trkpt lat="42.83848" lon="0.30038">
        <ele>1613.71</ele>
        <time>2017-12-17T12:06:11Z</time>
      </trkpt>
      <trkpt lat="42.83849" lon="0.30037">
        <ele>1614.67</ele>
        <time>2017-12-17T12:06:22Z</time>
      </trkpt>
      <trkpt lat="42.83847" lon="0.3003">
        <ele>1612.75</ele>
        <time>2017-12-17T12:06:29Z</time>
      </trkpt>
      <trkpt lat="42.83846" lon="0.30027">
        <ele>1612.27</ele>
        <time>2017-12-17T12:06:31Z</time>
      </trkpt>
      <trkpt lat="42.83844" lon="0.30011">
        <ele>1609.86</ele>
        <time>2017-12-17T12:06:43Z</time>
      </trkpt>
      <trkpt lat="42.83843" lon="0.30007">
        <ele>1608.42</ele>
        <time>2017-12-17T12:06:46Z</time>
      </trkpt>
      <trkpt lat="42.83843" lon="0.30006">
        <ele>1608.42</ele>
        <time>2017-12-17T12:06:47Z</time>
      </trkpt>
      <trkpt lat="42.83842" lon="0.30004">
        <ele>1607.94</ele>
        <time>2017-12-17T12:06:49Z</time>
      </trkpt>
      <trkpt lat="42.8384" lon="0.29997">
        <ele>1606.5</ele>
        <time>2017-12-17T12:06:54Z</time>
      </trkpt>
      <trkpt lat="42.83836" lon="0.29981">
        <ele>1605.06</ele>
        <time>2017-12-17T12:07:07Z</time>
      </trkpt>
      <trkpt lat="42.83835" lon="0.29977">
        <ele>1604.58</ele>
        <time>2017-12-17T12:07:10Z</time>
      </trkpt>
      <trkpt lat="42.83834" lon="0.29972">
        <ele>1604.1</ele>
        <time>2017-12-17T12:07:15Z</time>
      </trkpt>
      <trkpt lat="42.83831" lon="0.29956">
        <ele>1604.1</ele>
        <time>2017-12-17T12:07:26Z</time>
      </trkpt>
      <trkpt lat="42.83829" lon="0.29948">
        <ele>1604.1</ele>
        <time>2017-12-17T12:07:32Z</time>
      </trkpt>
      <trkpt lat="42.83826" lon="0.29935">
        <ele>1605.06</ele>
        <time>2017-12-17T12:07:43Z</time>
      </trkpt>
      <trkpt lat="42.83826" lon="0.29934">
        <ele>1605.06</ele>
        <time>2017-12-17T12:07:44Z</time>
      </trkpt>
      <trkpt lat="42.83824" lon="0.29919">
        <ele>1606.5</ele>
        <time>2017-12-17T12:07:57Z</time>
      </trkpt>
      <trkpt lat="42.83823" lon="0.29909">
        <ele>1606.5</ele>
        <time>2017-12-17T12:08:05Z</time>
      </trkpt>
      <trkpt lat="42.8382" lon="0.29898">
        <ele>1607.94</ele>
        <time>2017-12-17T12:08:17Z</time>
      </trkpt>
      <trkpt lat="42.83819" lon="0.29893">
        <ele>1607.94</ele>
        <time>2017-12-17T12:08:23Z</time>
      </trkpt>
      <trkpt lat="42.83819" lon="0.29887">
        <ele>1607.94</ele>
        <time>2017-12-17T12:08:35Z</time>
      </trkpt>
      <trkpt lat="42.8382" lon="0.29888">
        <ele>1606.5</ele>
        <time>2017-12-17T12:09:07Z</time>
      </trkpt>
      <trkpt lat="42.8382" lon="0.29886">
        <ele>1606.5</ele>
        <time>2017-12-17T12:09:30Z</time>
      </trkpt>
      <trkpt lat="42.8382" lon="0.29887">
        <ele>1606.02</ele>
        <time>2017-12-17T12:09:55Z</time>
      </trkpt>
      <trkpt lat="42.8382" lon="0.29889">
        <ele>1606.02</ele>
        <time>2017-12-17T12:10:12Z</time>
      </trkpt>
      <trkpt lat="42.8382" lon="0.29888">
        <ele>1606.02</ele>
        <time>2017-12-17T12:10:34Z</time>
      </trkpt>
      <trkpt lat="42.83821" lon="0.29886">
        <ele>1606.02</ele>
        <time>2017-12-17T12:11:03Z</time>
      </trkpt>
      <trkpt lat="42.83819" lon="0.29887">
        <ele>1606.02</ele>
        <time>2017-12-17T12:11:19Z</time>
      </trkpt>
      <trkpt lat="42.83819" lon="0.29885">
        <ele>1605.06</ele>
        <time>2017-12-17T12:11:39Z</time>
      </trkpt>
      <trkpt lat="42.83819" lon="0.29885">
        <ele>1606.5</ele>
        <time>2017-12-17T12:12:17Z</time>
      </trkpt>
      <trkpt lat="42.83819" lon="0.29887">
        <ele>1607.46</ele>
        <time>2017-12-17T12:12:29Z</time>
      </trkpt>
      <trkpt lat="42.83819" lon="0.29887">
        <ele>1606.02</ele>
        <time>2017-12-17T12:12:47Z</time>
      </trkpt>
      <trkpt lat="42.8382" lon="0.29887">
        <ele>1605.54</ele>
        <time>2017-12-17T12:13:05Z</time>
      </trkpt>
      <trkpt lat="42.8382" lon="0.29887">
        <ele>1605.54</ele>
        <time>2017-12-17T12:13:31Z</time>
      </trkpt>
      <trkpt lat="42.83817" lon="0.2989">
        <ele>1605.54</ele>
        <time>2017-12-17T12:13:36Z</time>
      </trkpt>
      <trkpt lat="42.83808" lon="0.29897">
        <ele>1605.06</ele>
        <time>2017-12-17T12:13:47Z</time>
      </trkpt>
      <trkpt lat="42.83802" lon="0.29902">
        <ele>1604.1</ele>
        <time>2017-12-17T12:14:00Z</time>
      </trkpt>
      <trkpt lat="42.83796" lon="0.29906">
        <ele>1602.17</ele>
        <time>2017-12-17T12:14:06Z</time>
      </trkpt>
      <trkpt lat="42.83789" lon="0.29909">
        <ele>1599.77</ele>
        <time>2017-12-17T12:14:16Z</time>
      </trkpt>
      <trkpt lat="42.83782" lon="0.29914">
        <ele>1597.85</ele>
        <time>2017-12-17T12:14:26Z</time>
      </trkpt>
      <trkpt lat="42.83776" lon="0.29917">
        <ele>1595.45</ele>
        <time>2017-12-17T12:14:38Z</time>
      </trkpt>
      <trkpt lat="42.83776" lon="0.29917">
        <ele>1595.45</ele>
        <time>2017-12-17T12:14:40Z</time>
      </trkpt>
      <trkpt lat="42.83774" lon="0.29919">
        <ele>1594</ele>
        <time>2017-12-17T12:14:44Z</time>
      </trkpt>
      <trkpt lat="42.8377" lon="0.29917">
        <ele>1593.04</ele>
        <time>2017-12-17T12:14:53Z</time>
      </trkpt>
      <trkpt lat="42.83768" lon="0.29916">
        <ele>1592.08</ele>
        <time>2017-12-17T12:15:01Z</time>
      </trkpt>
      <trkpt lat="42.83768" lon="0.29919">
        <ele>1590.64</ele>
        <time>2017-12-17T12:15:08Z</time>
      </trkpt>
      <trkpt lat="42.83769" lon="0.29919">
        <ele>1589.2</ele>
        <time>2017-12-17T12:15:10Z</time>
      </trkpt>
      <trkpt lat="42.83769" lon="0.29919">
        <ele>1593.52</ele>
        <time>2017-12-17T12:15:11Z</time>
      </trkpt>
      <trkpt lat="42.83768" lon="0.2992">
        <ele>1591.12</ele>
        <time>2017-12-17T12:15:12Z</time>
      </trkpt>
      <trkpt lat="42.83769" lon="0.29919">
        <ele>1591.12</ele>
        <time>2017-12-17T12:15:31Z</time>
      </trkpt>
      <trkpt lat="42.83768" lon="0.29925">
        <ele>1589.68</ele>
        <time>2017-12-17T12:15:50Z</time>
      </trkpt>
      <trkpt lat="42.83767" lon="0.29924">
        <ele>1589.2</ele>
        <time>2017-12-17T12:16:17Z</time>
      </trkpt>
      <trkpt lat="42.83767" lon="0.29925">
        <ele>1589.2</ele>
        <time>2017-12-17T12:16:31Z</time>
      </trkpt>
      <trkpt lat="42.83766" lon="0.29926">
        <ele>1589.2</ele>
        <time>2017-12-17T12:16:32Z</time>
      </trkpt>
      <trkpt lat="42.83763" lon="0.29941">
        <ele>1586.79</ele>
        <time>2017-12-17T12:16:47Z</time>
      </trkpt>
      <trkpt lat="42.83764" lon="0.29945">
        <ele>1586.31</ele>
        <time>2017-12-17T12:16:52Z</time>
      </trkpt>
      <trkpt lat="42.83764" lon="0.2995">
        <ele>1584.87</ele>
        <time>2017-12-17T12:16:58Z</time>
      </trkpt>
      <trkpt lat="42.83764" lon="0.29955">
        <ele>1584.39</ele>
        <time>2017-12-17T12:17:02Z</time>
      </trkpt>
      <trkpt lat="42.83764" lon="0.29965">
        <ele>1582.47</ele>
        <time>2017-12-17T12:17:11Z</time>
      </trkpt>
      <trkpt lat="42.83764" lon="0.29968">
        <ele>1581.99</ele>
        <time>2017-12-17T12:17:13Z</time>
      </trkpt>
      <trkpt lat="42.83763" lon="0.29971">
        <ele>1581.99</ele>
        <time>2017-12-17T12:17:15Z</time>
      </trkpt>
      <trkpt lat="42.83763" lon="0.29976">
        <ele>1581.51</ele>
        <time>2017-12-17T12:17:19Z</time>
      </trkpt>
      <trkpt lat="42.83762" lon="0.29982">
        <ele>1580.06</ele>
        <time>2017-12-17T12:17:23Z</time>
      </trkpt>
      <trkpt lat="42.83762" lon="0.29985">
        <ele>1580.06</ele>
        <time>2017-12-17T12:17:25Z</time>
      </trkpt>
      <trkpt lat="42.83761" lon="0.29993">
        <ele>1579.1</ele>
        <time>2017-12-17T12:17:31Z</time>
      </trkpt>
      <trkpt lat="42.83761" lon="0.3001">
        <ele>1576.7</ele>
        <time>2017-12-17T12:17:43Z</time>
      </trkpt>
      <trkpt lat="42.83758" lon="0.30027">
        <ele>1575.74</ele>
        <time>2017-12-17T12:17:54Z</time>
      </trkpt>
      <trkpt lat="42.83758" lon="0.30029">
        <ele>1574.78</ele>
        <time>2017-12-17T12:17:56Z</time>
      </trkpt>
      <trkpt lat="42.83757" lon="0.30031">
        <ele>1574.3</ele>
        <time>2017-12-17T12:17:58Z</time>
      </trkpt>
      <trkpt lat="42.83753" lon="0.30047">
        <ele>1572.85</ele>
        <time>2017-12-17T12:18:10Z</time>
      </trkpt>
      <trkpt lat="42.83751" lon="0.30054">
        <ele>1571.89</ele>
        <time>2017-12-17T12:18:16Z</time>
      </trkpt>
      <trkpt lat="42.83751" lon="0.30057">
        <ele>1571.41</ele>
        <time>2017-12-17T12:18:18Z</time>
      </trkpt>
      <trkpt lat="42.83749" lon="0.3007">
        <ele>1570.45</ele>
        <time>2017-12-17T12:18:29Z</time>
      </trkpt>
      <trkpt lat="42.83748" lon="0.30074">
        <ele>1570.45</ele>
        <time>2017-12-17T12:18:33Z</time>
      </trkpt>
      <trkpt lat="42.83745" lon="0.30081">
        <ele>1569.97</ele>
        <time>2017-12-17T12:18:44Z</time>
      </trkpt>
      <trkpt lat="42.83745" lon="0.30079">
        <ele>1569.49</ele>
        <time>2017-12-17T12:19:06Z</time>
      </trkpt>
      <trkpt lat="42.83744" lon="0.30083">
        <ele>1569.49</ele>
        <time>2017-12-17T12:19:18Z</time>
      </trkpt>
      <trkpt lat="42.83744" lon="0.30084">
        <ele>1569.49</ele>
        <time>2017-12-17T12:19:45Z</time>
      </trkpt>
      <trkpt lat="42.83744" lon="0.30084">
        <ele>1569.49</ele>
        <time>2017-12-17T12:19:59Z</time>
      </trkpt>
      <trkpt lat="42.8374" lon="0.30084">
        <ele>1567.57</ele>
        <time>2017-12-17T12:20:10Z</time>
      </trkpt>
      <trkpt lat="42.8374" lon="0.30082">
        <ele>1567.57</ele>
        <time>2017-12-17T12:20:14Z</time>
      </trkpt>
      <trkpt lat="42.83735" lon="0.30081">
        <ele>1564.68</ele>
        <time>2017-12-17T12:20:24Z</time>
      </trkpt>
      <trkpt lat="42.83733" lon="0.3008">
        <ele>1563.24</ele>
        <time>2017-12-17T12:20:35Z</time>
      </trkpt>
      <trkpt lat="42.83729" lon="0.30077">
        <ele>1561.32</ele>
        <time>2017-12-17T12:20:42Z</time>
      </trkpt>
      <trkpt lat="42.83722" lon="0.30074">
        <ele>1558.43</ele>
        <time>2017-12-17T12:20:53Z</time>
      </trkpt>
      <trkpt lat="42.8372" lon="0.30073">
        <ele>1556.51</ele>
        <time>2017-12-17T12:20:58Z</time>
      </trkpt>
      <trkpt lat="42.83715" lon="0.30071">
        <ele>1553.63</ele>
        <time>2017-12-17T12:21:10Z</time>
      </trkpt>
      <trkpt lat="42.8371" lon="0.30073">
        <ele>1550.74</ele>
        <time>2017-12-17T12:21:20Z</time>
      </trkpt>
      <trkpt lat="42.83706" lon="0.3007">
        <ele>1547.86</ele>
        <time>2017-12-17T12:21:33Z</time>
      </trkpt>
      <trkpt lat="42.837" lon="0.30066">
        <ele>1544.5</ele>
        <time>2017-12-17T12:21:44Z</time>
      </trkpt>
      <trkpt lat="42.83695" lon="0.30057">
        <ele>1541.61</ele>
        <time>2017-12-17T12:21:55Z</time>
      </trkpt>
      <trkpt lat="42.83691" lon="0.30055">
        <ele>1540.65</ele>
        <time>2017-12-17T12:22:07Z</time>
      </trkpt>
      <trkpt lat="42.8369" lon="0.30055">
        <ele>1540.17</ele>
        <time>2017-12-17T12:22:35Z</time>
      </trkpt>
      <trkpt lat="42.83689" lon="0.30049">
        <ele>1538.25</ele>
        <time>2017-12-17T12:22:52Z</time>
      </trkpt>
      <trkpt lat="42.83687" lon="0.30041">
        <ele>1536.32</ele>
        <time>2017-12-17T12:23:02Z</time>
      </trkpt>
      <trkpt lat="42.83686" lon="0.30039">
        <ele>1535.36</ele>
        <time>2017-12-17T12:23:05Z</time>
      </trkpt>
      <trkpt lat="42.83684" lon="0.30037">
        <ele>1533.92</ele>
        <time>2017-12-17T12:23:09Z</time>
      </trkpt>
      <trkpt lat="42.83681" lon="0.30032">
        <ele>1532.48</ele>
        <time>2017-12-17T12:23:14Z</time>
      </trkpt>
      <trkpt lat="42.83678" lon="0.30032">
        <ele>1531.52</ele>
        <time>2017-12-17T12:23:17Z</time>
      </trkpt>
      <trkpt lat="42.83674" lon="0.30037">
        <ele>1530.08</ele>
        <time>2017-12-17T12:23:27Z</time>
      </trkpt>
      <trkpt lat="42.83676" lon="0.30039">
        <ele>1529.59</ele>
        <time>2017-12-17T12:23:42Z</time>
      </trkpt>
      <trkpt lat="42.83674" lon="0.30037">
        <ele>1529.59</ele>
        <time>2017-12-17T12:24:01Z</time>
      </trkpt>
      <trkpt lat="42.83674" lon="0.30038">
        <ele>1529.59</ele>
        <time>2017-12-17T12:24:21Z</time>
      </trkpt>
      <trkpt lat="42.83675" lon="0.30037">
        <ele>1530.08</ele>
        <time>2017-12-17T12:24:53Z</time>
      </trkpt>
      <trkpt lat="42.83672" lon="0.30042">
        <ele>1528.63</ele>
        <time>2017-12-17T12:25:03Z</time>
      </trkpt>
      <trkpt lat="42.8367" lon="0.30043">
        <ele>1528.63</ele>
        <time>2017-12-17T12:25:05Z</time>
      </trkpt>
      <trkpt lat="42.83669" lon="0.30044">
        <ele>1527.19</ele>
        <time>2017-12-17T12:25:07Z</time>
      </trkpt>
      <trkpt lat="42.83668" lon="0.30046">
        <ele>1526.71</ele>
        <time>2017-12-17T12:25:09Z</time>
      </trkpt>
      <trkpt lat="42.83662" lon="0.30054">
        <ele>1524.31</ele>
        <time>2017-12-17T12:25:20Z</time>
      </trkpt>
      <trkpt lat="42.83657" lon="0.30065">
        <ele>1521.42</ele>
        <time>2017-12-17T12:25:30Z</time>
      </trkpt>
      <trkpt lat="42.83652" lon="0.30068">
        <ele>1517.58</ele>
        <time>2017-12-17T12:25:41Z</time>
      </trkpt>
      <trkpt lat="42.8365" lon="0.30067">
        <ele>1519.5</ele>
        <time>2017-12-17T12:25:47Z</time>
      </trkpt>
      <trkpt lat="42.83649" lon="0.30064">
        <ele>1518.06</ele>
        <time>2017-12-17T12:25:50Z</time>
      </trkpt>
      <trkpt lat="42.83647" lon="0.30056">
        <ele>1516.62</ele>
        <time>2017-12-17T12:25:56Z</time>
      </trkpt>
      <trkpt lat="42.83643" lon="0.30044">
        <ele>1513.73</ele>
        <time>2017-12-17T12:26:07Z</time>
      </trkpt>
      <trkpt lat="42.83642" lon="0.30042">
        <ele>1513.73</ele>
        <time>2017-12-17T12:26:09Z</time>
      </trkpt>
      <trkpt lat="42.83642" lon="0.30037">
        <ele>1512.77</ele>
        <time>2017-12-17T12:26:13Z</time>
      </trkpt>
      <trkpt lat="42.83641" lon="0.30033">
        <ele>1510.85</ele>
        <time>2017-12-17T12:26:17Z</time>
      </trkpt>
      <trkpt lat="42.83638" lon="0.3003">
        <ele>1510.37</ele>
        <time>2017-12-17T12:26:21Z</time>
      </trkpt>
      <trkpt lat="42.83635" lon="0.30017">
        <ele>1507.48</ele>
        <time>2017-12-17T12:26:32Z</time>
      </trkpt>
      <trkpt lat="42.83633" lon="0.30011">
        <ele>1506.52</ele>
        <time>2017-12-17T12:26:38Z</time>
      </trkpt>
      <trkpt lat="42.83632" lon="0.30009">
        <ele>1506.04</ele>
        <time>2017-12-17T12:26:40Z</time>
      </trkpt>
      <trkpt lat="42.83625" lon="0.29999">
        <ele>1502.68</ele>
        <time>2017-12-17T12:26:51Z</time>
      </trkpt>
      <trkpt lat="42.83624" lon="0.29997">
        <ele>1502.2</ele>
        <time>2017-12-17T12:26:53Z</time>
      </trkpt>
      <trkpt lat="42.83623" lon="0.29992">
        <ele>1501.72</ele>
        <time>2017-12-17T12:26:57Z</time>
      </trkpt>
      <trkpt lat="42.83621" lon="0.2999">
        <ele>1501.24</ele>
        <time>2017-12-17T12:27:00Z</time>
      </trkpt>
      <trkpt lat="42.83615" lon="0.29981">
        <ele>1499.31</ele>
        <time>2017-12-17T12:27:13Z</time>
      </trkpt>
      <trkpt lat="42.83614" lon="0.29981">
        <ele>1498.83</ele>
        <time>2017-12-17T12:27:15Z</time>
      </trkpt>
      <trkpt lat="42.83609" lon="0.29977">
        <ele>1497.87</ele>
        <time>2017-12-17T12:27:20Z</time>
      </trkpt>
      <trkpt lat="42.83606" lon="0.29974">
        <ele>1497.39</ele>
        <time>2017-12-17T12:27:23Z</time>
      </trkpt>
      <trkpt lat="42.83603" lon="0.29968">
        <ele>1495.95</ele>
        <time>2017-12-17T12:27:30Z</time>
      </trkpt>
      <trkpt lat="42.83602" lon="0.29965">
        <ele>1495.47</ele>
        <time>2017-12-17T12:27:32Z</time>
      </trkpt>
      <trkpt lat="42.83595" lon="0.29955">
        <ele>1492.58</ele>
        <time>2017-12-17T12:27:44Z</time>
      </trkpt>
      <trkpt lat="42.83591" lon="0.29953">
        <ele>1491.62</ele>
        <time>2017-12-17T12:27:59Z</time>
      </trkpt>
      <trkpt lat="42.83588" lon="0.29948">
        <ele>1490.18</ele>
        <time>2017-12-17T12:28:12Z</time>
      </trkpt>
      <trkpt lat="42.83584" lon="0.2994">
        <ele>1487.78</ele>
        <time>2017-12-17T12:28:23Z</time>
      </trkpt>
      <trkpt lat="42.83583" lon="0.29937">
        <ele>1486.82</ele>
        <time>2017-12-17T12:28:27Z</time>
      </trkpt>
      <trkpt lat="42.83581" lon="0.29931">
        <ele>1484.89</ele>
        <time>2017-12-17T12:28:34Z</time>
      </trkpt>
      <trkpt lat="42.83582" lon="0.29928">
        <ele>1484.41</ele>
        <time>2017-12-17T12:28:48Z</time>
      </trkpt>
      <trkpt lat="42.83579" lon="0.29924">
        <ele>1484.41</ele>
        <time>2017-12-17T12:29:15Z</time>
      </trkpt>
      <trkpt lat="42.83579" lon="0.29923">
        <ele>1483.45</ele>
        <time>2017-12-17T12:29:23Z</time>
      </trkpt>
      <trkpt lat="42.83578" lon="0.29911">
        <ele>1480.57</ele>
        <time>2017-12-17T12:29:35Z</time>
      </trkpt>
      <trkpt lat="42.83574" lon="0.29894">
        <ele>1477.68</ele>
        <time>2017-12-17T12:29:47Z</time>
      </trkpt>
      <trkpt lat="42.8357" lon="0.29882">
        <ele>1475.28</ele>
        <time>2017-12-17T12:29:58Z</time>
      </trkpt>
      <trkpt lat="42.83567" lon="0.29872">
        <ele>1472.88</ele>
        <time>2017-12-17T12:30:10Z</time>
      </trkpt>
      <trkpt lat="42.83565" lon="0.29867">
        <ele>1472.4</ele>
        <time>2017-12-17T12:30:14Z</time>
      </trkpt>
      <trkpt lat="42.83563" lon="0.29857">
        <ele>1470.95</ele>
        <time>2017-12-17T12:30:25Z</time>
      </trkpt>
      <trkpt lat="42.83561" lon="0.29846">
        <ele>1469.03</ele>
        <time>2017-12-17T12:30:35Z</time>
      </trkpt>
      <trkpt lat="42.83557" lon="0.29837">
        <ele>1467.11</ele>
        <time>2017-12-17T12:30:43Z</time>
      </trkpt>
      <trkpt lat="42.83556" lon="0.29835">
        <ele>1467.11</ele>
        <time>2017-12-17T12:30:45Z</time>
      </trkpt>
      <trkpt lat="42.83549" lon="0.2983">
        <ele>1465.67</ele>
        <time>2017-12-17T12:30:54Z</time>
      </trkpt>
      <trkpt lat="42.83547" lon="0.29829">
        <ele>1465.19</ele>
        <time>2017-12-17T12:30:56Z</time>
      </trkpt>
      <trkpt lat="42.83542" lon="0.29826">
        <ele>1464.23</ele>
        <time>2017-12-17T12:31:02Z</time>
      </trkpt>
      <trkpt lat="42.83539" lon="0.29828">
        <ele>1463.74</ele>
        <time>2017-12-17T12:31:17Z</time>
      </trkpt>
      <trkpt lat="42.83533" lon="0.29824">
        <ele>1462.3</ele>
        <time>2017-12-17T12:31:32Z</time>
      </trkpt>
      <trkpt lat="42.83525" lon="0.29818">
        <ele>1460.86</ele>
        <time>2017-12-17T12:31:43Z</time>
      </trkpt>
      <trkpt lat="42.83524" lon="0.29817">
        <ele>1460.86</ele>
        <time>2017-12-17T12:31:46Z</time>
      </trkpt>
      <trkpt lat="42.83522" lon="0.29817">
        <ele>1460.86</ele>
        <time>2017-12-17T12:32:02Z</time>
      </trkpt>
      <trkpt lat="42.8352" lon="0.29814">
        <ele>1460.86</ele>
        <time>2017-12-17T12:32:30Z</time>
      </trkpt>
      <trkpt lat="42.8352" lon="0.29815">
        <ele>1460.38</ele>
        <time>2017-12-17T12:32:54Z</time>
      </trkpt>
      <trkpt lat="42.83519" lon="0.29811">
        <ele>1460.38</ele>
        <time>2017-12-17T12:33:23Z</time>
      </trkpt>
      <trkpt lat="42.8352" lon="0.29811">
        <ele>1459.9</ele>
        <time>2017-12-17T12:33:47Z</time>
      </trkpt>
      <trkpt lat="42.83518" lon="0.29807">
        <ele>1459.9</ele>
        <time>2017-12-17T12:34:10Z</time>
      </trkpt>
      <trkpt lat="42.83514" lon="0.29808">
        <ele>1459.9</ele>
        <time>2017-12-17T12:34:39Z</time>
      </trkpt>
      <trkpt lat="42.83515" lon="0.29809">
        <ele>1460.38</ele>
        <time>2017-12-17T12:35:09Z</time>
      </trkpt>
      <trkpt lat="42.83515" lon="0.2981">
        <ele>1460.38</ele>
        <time>2017-12-17T12:35:34Z</time>
      </trkpt>
      <trkpt lat="42.8351" lon="0.2981">
        <ele>1460.38</ele>
        <time>2017-12-17T12:36:04Z</time>
      </trkpt>
      <trkpt lat="42.83512" lon="0.29811">
        <ele>1460.38</ele>
        <time>2017-12-17T12:36:31Z</time>
      </trkpt>
      <trkpt lat="42.83512" lon="0.29814">
        <ele>1460.38</ele>
        <time>2017-12-17T12:36:56Z</time>
      </trkpt>
      <trkpt lat="42.83514" lon="0.29817">
        <ele>1460.38</ele>
        <time>2017-12-17T12:37:19Z</time>
      </trkpt>
      <trkpt lat="42.83512" lon="0.29818">
        <ele>1459.9</ele>
        <time>2017-12-17T12:37:22Z</time>
      </trkpt>
      <trkpt lat="42.83511" lon="0.29811">
        <ele>1459.9</ele>
        <time>2017-12-17T12:37:36Z</time>
      </trkpt>
      <trkpt lat="42.83509" lon="0.29805">
        <ele>1459.9</ele>
        <time>2017-12-17T12:37:49Z</time>
      </trkpt>
      <trkpt lat="42.83502" lon="0.29806">
        <ele>1458.94</ele>
        <time>2017-12-17T12:37:55Z</time>
      </trkpt>
      <trkpt lat="42.83496" lon="0.29807">
        <ele>1457.98</ele>
        <time>2017-12-17T12:38:01Z</time>
      </trkpt>
      <trkpt lat="42.83494" lon="0.29809">
        <ele>1457.5</ele>
        <time>2017-12-17T12:38:03Z</time>
      </trkpt>
      <trkpt lat="42.83482" lon="0.29807">
        <ele>1457.02</ele>
        <time>2017-12-17T12:38:16Z</time>
      </trkpt>
      <trkpt lat="42.83478" lon="0.29801">
        <ele>1457.02</ele>
        <time>2017-12-17T12:38:40Z</time>
      </trkpt>
      <trkpt lat="42.83469" lon="0.298">
        <ele>1455.57</ele>
        <time>2017-12-17T12:38:51Z</time>
      </trkpt>
      <trkpt lat="42.83468" lon="0.298">
        <ele>1455.09</ele>
        <time>2017-12-17T12:39:01Z</time>
      </trkpt>
      <trkpt lat="42.83461" lon="0.29798">
        <ele>1454.13</ele>
        <time>2017-12-17T12:39:13Z</time>
      </trkpt>
      <trkpt lat="42.83459" lon="0.29798">
        <ele>1454.13</ele>
        <time>2017-12-17T12:39:17Z</time>
      </trkpt>
      <trkpt lat="42.83457" lon="0.29795">
        <ele>1453.17</ele>
        <time>2017-12-17T12:39:29Z</time>
      </trkpt>
      <trkpt lat="42.83457" lon="0.29799">
        <ele>1453.17</ele>
        <time>2017-12-17T12:39:55Z</time>
      </trkpt>
      <trkpt lat="42.83448" lon="0.29793">
        <ele>1449.81</ele>
        <time>2017-12-17T12:40:06Z</time>
      </trkpt>
      <trkpt lat="42.83445" lon="0.29789">
        <ele>1448.36</ele>
        <time>2017-12-17T12:40:11Z</time>
      </trkpt>
      <trkpt lat="42.83436" lon="0.29786">
        <ele>1445.48</ele>
        <time>2017-12-17T12:40:21Z</time>
      </trkpt>
      <trkpt lat="42.83433" lon="0.29784">
        <ele>1444.52</ele>
        <time>2017-12-17T12:40:25Z</time>
      </trkpt>
      <trkpt lat="42.83429" lon="0.29781">
        <ele>1443.56</ele>
        <time>2017-12-17T12:40:30Z</time>
      </trkpt>
      <trkpt lat="42.83426" lon="0.29779">
        <ele>1442.6</ele>
        <time>2017-12-17T12:40:33Z</time>
      </trkpt>
      <trkpt lat="42.83422" lon="0.29775">
        <ele>1441.63</ele>
        <time>2017-12-17T12:40:47Z</time>
      </trkpt>
      <trkpt lat="42.83419" lon="0.29773">
        <ele>1441.15</ele>
        <time>2017-12-17T12:41:03Z</time>
      </trkpt>
      <trkpt lat="42.83407" lon="0.29767">
        <ele>1437.31</ele>
        <time>2017-12-17T12:41:16Z</time>
      </trkpt>
      <trkpt lat="42.83401" lon="0.29765">
        <ele>1435.39</ele>
        <time>2017-12-17T12:41:26Z</time>
      </trkpt>
      <trkpt lat="42.834" lon="0.29764">
        <ele>1434.42</ele>
        <time>2017-12-17T12:41:39Z</time>
      </trkpt>
      <trkpt lat="42.83398" lon="0.29761">
        <ele>1434.42</ele>
        <time>2017-12-17T12:41:59Z</time>
      </trkpt>
      <trkpt lat="42.83395" lon="0.29763">
        <ele>1433.94</ele>
        <time>2017-12-17T12:42:01Z</time>
      </trkpt>
      <trkpt lat="42.8339" lon="0.29763">
        <ele>1431.54</ele>
        <time>2017-12-17T12:42:08Z</time>
      </trkpt>
      <trkpt lat="42.83388" lon="0.29761">
        <ele>1431.06</ele>
        <time>2017-12-17T12:42:10Z</time>
      </trkpt>
      <trkpt lat="42.83377" lon="0.29761">
        <ele>1427.7</ele>
        <time>2017-12-17T12:42:21Z</time>
      </trkpt>
      <trkpt lat="42.83375" lon="0.29761">
        <ele>1427.21</ele>
        <time>2017-12-17T12:42:23Z</time>
      </trkpt>
      <trkpt lat="42.8337" lon="0.29759">
        <ele>1426.25</ele>
        <time>2017-12-17T12:42:28Z</time>
      </trkpt>
      <trkpt lat="42.83356" lon="0.29755">
        <ele>1422.89</ele>
        <time>2017-12-17T12:42:41Z</time>
      </trkpt>
      <trkpt lat="42.83348" lon="0.29749">
        <ele>1420</ele>
        <time>2017-12-17T12:42:51Z</time>
      </trkpt>
      <trkpt lat="42.83345" lon="0.29747">
        <ele>1419.52</ele>
        <time>2017-12-17T12:43:04Z</time>
      </trkpt>
      <trkpt lat="42.83339" lon="0.29748">
        <ele>1418.08</ele>
        <time>2017-12-17T12:43:27Z</time>
      </trkpt>
      <trkpt lat="42.83337" lon="0.29746">
        <ele>1416.64</ele>
        <time>2017-12-17T12:43:30Z</time>
      </trkpt>
      <trkpt lat="42.83331" lon="0.29742">
        <ele>1413.76</ele>
        <time>2017-12-17T12:43:39Z</time>
      </trkpt>
      <trkpt lat="42.83322" lon="0.29735">
        <ele>1410.39</ele>
        <time>2017-12-17T12:43:51Z</time>
      </trkpt>
      <trkpt lat="42.83318" lon="0.2973">
        <ele>1408.95</ele>
        <time>2017-12-17T12:44:01Z</time>
      </trkpt>
      <trkpt lat="42.83316" lon="0.29728">
        <ele>1407.99</ele>
        <time>2017-12-17T12:44:08Z</time>
      </trkpt>
      <trkpt lat="42.83315" lon="0.29727">
        <ele>1407.03</ele>
        <time>2017-12-17T12:44:21Z</time>
      </trkpt>
      <trkpt lat="42.83313" lon="0.29722">
        <ele>1406.55</ele>
        <time>2017-12-17T12:44:44Z</time>
      </trkpt>
      <trkpt lat="42.83308" lon="0.29713">
        <ele>1403.18</ele>
        <time>2017-12-17T12:44:55Z</time>
      </trkpt>
      <trkpt lat="42.83307" lon="0.29709">
        <ele>1402.22</ele>
        <time>2017-12-17T12:45:08Z</time>
      </trkpt>
      <trkpt lat="42.83303" lon="0.29708">
        <ele>1401.74</ele>
        <time>2017-12-17T12:45:20Z</time>
      </trkpt>
      <trkpt lat="42.83301" lon="0.29706">
        <ele>1400.3</ele>
        <time>2017-12-17T12:45:39Z</time>
      </trkpt>
      <trkpt lat="42.83298" lon="0.29701">
        <ele>1398.37</ele>
        <time>2017-12-17T12:45:52Z</time>
      </trkpt>
      <trkpt lat="42.83295" lon="0.29699">
        <ele>1396.93</ele>
        <time>2017-12-17T12:46:04Z</time>
      </trkpt>
      <trkpt lat="42.83296" lon="0.29704">
        <ele>1396.93</ele>
        <time>2017-12-17T12:46:19Z</time>
      </trkpt>
      <trkpt lat="42.83297" lon="0.29702">
        <ele>1396.93</ele>
        <time>2017-12-17T12:46:36Z</time>
      </trkpt>
      <trkpt lat="42.83298" lon="0.297">
        <ele>1396.93</ele>
        <time>2017-12-17T12:46:58Z</time>
      </trkpt>
      <trkpt lat="42.83296" lon="0.297">
        <ele>1396.93</ele>
        <time>2017-12-17T12:47:22Z</time>
      </trkpt>
      <trkpt lat="42.83295" lon="0.29703">
        <ele>1396.93</ele>
        <time>2017-12-17T12:47:53Z</time>
      </trkpt>
      <trkpt lat="42.83294" lon="0.29703">
        <ele>1396.93</ele>
        <time>2017-12-17T12:48:16Z</time>
      </trkpt>
      <trkpt lat="42.83294" lon="0.29698">
        <ele>1395.49</ele>
        <time>2017-12-17T12:48:29Z</time>
      </trkpt>
      <trkpt lat="42.83284" lon="0.29691">
        <ele>1392.13</ele>
        <time>2017-12-17T12:48:42Z</time>
      </trkpt>
      <trkpt lat="42.83282" lon="0.29686">
        <ele>1391.17</ele>
        <time>2017-12-17T12:48:46Z</time>
      </trkpt>
      <trkpt lat="42.8328" lon="0.29679">
        <ele>1389.24</ele>
        <time>2017-12-17T12:49:00Z</time>
      </trkpt>
      <trkpt lat="42.83279" lon="0.29674">
        <ele>1387.8</ele>
        <time>2017-12-17T12:49:15Z</time>
      </trkpt>
      <trkpt lat="42.83275" lon="0.29669">
        <ele>1385.4</ele>
        <time>2017-12-17T12:49:28Z</time>
      </trkpt>
      <trkpt lat="42.83272" lon="0.29657">
        <ele>1382.03</ele>
        <time>2017-12-17T12:49:41Z</time>
      </trkpt>
      <trkpt lat="42.83272" lon="0.29654">
        <ele>1382.03</ele>
        <time>2017-12-17T12:49:44Z</time>
      </trkpt>
      <trkpt lat="42.8327" lon="0.29643">
        <ele>1378.67</ele>
        <time>2017-12-17T12:49:57Z</time>
      </trkpt>
      <trkpt lat="42.8327" lon="0.29637">
        <ele>1377.71</ele>
        <time>2017-12-17T12:50:08Z</time>
      </trkpt>
      <trkpt lat="42.83267" lon="0.29623">
        <ele>1375.3</ele>
        <time>2017-12-17T12:50:21Z</time>
      </trkpt>
      <trkpt lat="42.83265" lon="0.29612">
        <ele>1372.42</ele>
        <time>2017-12-17T12:50:33Z</time>
      </trkpt>
      <trkpt lat="42.83265" lon="0.29611">
        <ele>1372.42</ele>
        <time>2017-12-17T12:50:34Z</time>
      </trkpt>
      <trkpt lat="42.83264" lon="0.29607">
        <ele>1371.94</ele>
        <time>2017-12-17T12:50:38Z</time>
      </trkpt>
      <trkpt lat="42.8326" lon="0.29591">
        <ele>1369.05</ele>
        <time>2017-12-17T12:50:52Z</time>
      </trkpt>
      <trkpt lat="42.83256" lon="0.29593">
        <ele>1368.57</ele>
        <time>2017-12-17T12:51:05Z</time>
      </trkpt>
      <trkpt lat="42.83258" lon="0.29591">
        <ele>1368.57</ele>
        <time>2017-12-17T12:51:42Z</time>
      </trkpt>
      <trkpt lat="42.83258" lon="0.29593">
        <ele>1368.57</ele>
        <time>2017-12-17T12:52:09Z</time>
      </trkpt>
      <trkpt lat="42.83259" lon="0.29589">
        <ele>1368.57</ele>
        <time>2017-12-17T12:52:26Z</time>
      </trkpt>
      <trkpt lat="42.83254" lon="0.29576">
        <ele>1365.69</ele>
        <time>2017-12-17T12:52:38Z</time>
      </trkpt>
      <trkpt lat="42.83247" lon="0.29561">
        <ele>1363.29</ele>
        <time>2017-12-17T12:52:51Z</time>
      </trkpt>
      <trkpt lat="42.83245" lon="0.29553">
        <ele>1362.33</ele>
        <time>2017-12-17T12:52:58Z</time>
      </trkpt>
      <trkpt lat="42.83243" lon="0.29541">
        <ele>1361.36</ele>
        <time>2017-12-17T12:53:10Z</time>
      </trkpt>
      <trkpt lat="42.83242" lon="0.29531">
        <ele>1360.4</ele>
        <time>2017-12-17T12:53:17Z</time>
      </trkpt>
      <trkpt lat="42.83241" lon="0.29526">
        <ele>1359.92</ele>
        <time>2017-12-17T12:53:21Z</time>
      </trkpt>
      <trkpt lat="42.8324" lon="0.29522">
        <ele>1359.44</ele>
        <time>2017-12-17T12:53:24Z</time>
      </trkpt>
      <trkpt lat="42.83239" lon="0.29512">
        <ele>1358.48</ele>
        <time>2017-12-17T12:53:32Z</time>
      </trkpt>
      <trkpt lat="42.83239" lon="0.29508">
        <ele>1357.52</ele>
        <time>2017-12-17T12:53:35Z</time>
      </trkpt>
      <trkpt lat="42.8324" lon="0.295">
        <ele>1357.04</ele>
        <time>2017-12-17T12:53:41Z</time>
      </trkpt>
      <trkpt lat="42.83237" lon="0.29478">
        <ele>1354.63</ele>
        <time>2017-12-17T12:53:56Z</time>
      </trkpt>
      <trkpt lat="42.83236" lon="0.29469">
        <ele>1353.67</ele>
        <time>2017-12-17T12:54:04Z</time>
      </trkpt>
      <trkpt lat="42.83235" lon="0.29464">
        <ele>1353.19</ele>
        <time>2017-12-17T12:54:08Z</time>
      </trkpt>
      <trkpt lat="42.83234" lon="0.29445">
        <ele>1349.83</ele>
        <time>2017-12-17T12:54:23Z</time>
      </trkpt>
      <trkpt lat="42.83228" lon="0.29435">
        <ele>1348.87</ele>
        <time>2017-12-17T12:54:34Z</time>
      </trkpt>
      <trkpt lat="42.83225" lon="0.2943">
        <ele>1348.39</ele>
        <time>2017-12-17T12:54:45Z</time>
      </trkpt>
      <trkpt lat="42.8322" lon="0.29426">
        <ele>1346.94</ele>
        <time>2017-12-17T12:54:51Z</time>
      </trkpt>
      <trkpt lat="42.83218" lon="0.29426">
        <ele>1346.46</ele>
        <time>2017-12-17T12:54:53Z</time>
      </trkpt>
      <trkpt lat="42.83207" lon="0.29426">
        <ele>1345.5</ele>
        <time>2017-12-17T12:55:05Z</time>
      </trkpt>
      <trkpt lat="42.83192" lon="0.29425">
        <ele>1343.1</ele>
        <time>2017-12-17T12:55:18Z</time>
      </trkpt>
      <trkpt lat="42.83186" lon="0.29422">
        <ele>1341.18</ele>
        <time>2017-12-17T12:55:27Z</time>
      </trkpt>
      <trkpt lat="42.83174" lon="0.2942">
        <ele>1338.77</ele>
        <time>2017-12-17T12:55:38Z</time>
      </trkpt>
      <trkpt lat="42.83166" lon="0.29418">
        <ele>1337.81</ele>
        <time>2017-12-17T12:55:49Z</time>
      </trkpt>
      <trkpt lat="42.83163" lon="0.29418">
        <ele>1336.85</ele>
        <time>2017-12-17T12:55:58Z</time>
      </trkpt>
      <trkpt lat="42.83158" lon="0.29417">
        <ele>1335.41</ele>
        <time>2017-12-17T12:56:03Z</time>
      </trkpt>
      <trkpt lat="42.83155" lon="0.29416">
        <ele>1334.45</ele>
        <time>2017-12-17T12:56:09Z</time>
      </trkpt>
      <trkpt lat="42.83146" lon="0.29418">
        <ele>1332.52</ele>
        <time>2017-12-17T12:56:19Z</time>
      </trkpt>
      <trkpt lat="42.83139" lon="0.29418">
        <ele>1330.12</ele>
        <time>2017-12-17T12:56:28Z</time>
      </trkpt>
      <trkpt lat="42.83131" lon="0.29419">
        <ele>1328.2</ele>
        <time>2017-12-17T12:56:38Z</time>
      </trkpt>
      <trkpt lat="42.83122" lon="0.29422">
        <ele>1325.8</ele>
        <time>2017-12-17T12:56:48Z</time>
      </trkpt>
      <trkpt lat="42.8311" lon="0.29423">
        <ele>1322.43</ele>
        <time>2017-12-17T12:57:03Z</time>
      </trkpt>
      <trkpt lat="42.83101" lon="0.29422">
        <ele>1320.51</ele>
        <time>2017-12-17T12:57:15Z</time>
      </trkpt>
      <trkpt lat="42.83098" lon="0.29422">
        <ele>1320.51</ele>
        <time>2017-12-17T12:57:18Z</time>
      </trkpt>
      <trkpt lat="42.83091" lon="0.29423">
        <ele>1320.03</ele>
        <time>2017-12-17T12:57:29Z</time>
      </trkpt>
      <trkpt lat="42.83087" lon="0.29423">
        <ele>1319.55</ele>
        <time>2017-12-17T12:57:38Z</time>
      </trkpt>
      <trkpt lat="42.83088" lon="0.29423">
        <ele>1319.55</ele>
        <time>2017-12-17T12:57:47Z</time>
      </trkpt>
      <trkpt lat="42.83088" lon="0.29423">
        <ele>1319.55</ele>
        <time>2017-12-17T12:58:09Z</time>
      </trkpt>
      <trkpt lat="42.83085" lon="0.29421">
        <ele>1319.07</ele>
        <time>2017-12-17T12:58:24Z</time>
      </trkpt>
      <trkpt lat="42.83076" lon="0.29419">
        <ele>1316.66</ele>
        <time>2017-12-17T12:58:35Z</time>
      </trkpt>
      <trkpt lat="42.83071" lon="0.2942">
        <ele>1315.7</ele>
        <time>2017-12-17T12:58:46Z</time>
      </trkpt>
      <trkpt lat="42.83064" lon="0.29426">
        <ele>1313.3</ele>
        <time>2017-12-17T12:58:59Z</time>
      </trkpt>
      <trkpt lat="42.8306" lon="0.29425">
        <ele>1312.34</ele>
        <time>2017-12-17T12:59:10Z</time>
      </trkpt>
      <trkpt lat="42.83057" lon="0.29425">
        <ele>1311.86</ele>
        <time>2017-12-17T12:59:15Z</time>
      </trkpt>
      <trkpt lat="42.83056" lon="0.29425">
        <ele>1310.9</ele>
        <time>2017-12-17T12:59:27Z</time>
      </trkpt>
      <trkpt lat="42.83056" lon="0.29423">
        <ele>1310.9</ele>
        <time>2017-12-17T12:59:42Z</time>
      </trkpt>
      <trkpt lat="42.83059" lon="0.2942">
        <ele>1310.9</ele>
        <time>2017-12-17T13:00:03Z</time>
      </trkpt>
      <trkpt lat="42.83059" lon="0.2942">
        <ele>1310.9</ele>
        <time>2017-12-17T13:00:21Z</time>
      </trkpt>
      <trkpt lat="42.83052" lon="0.2942">
        <ele>1309.93</ele>
        <time>2017-12-17T13:00:33Z</time>
      </trkpt>
      <trkpt lat="42.8305" lon="0.2942">
        <ele>1309.45</ele>
        <time>2017-12-17T13:00:35Z</time>
      </trkpt>
      <trkpt lat="42.83043" lon="0.29425">
        <ele>1308.49</ele>
        <time>2017-12-17T13:00:46Z</time>
      </trkpt>
      <trkpt lat="42.83034" lon="0.29423">
        <ele>1306.09</ele>
        <time>2017-12-17T13:00:57Z</time>
      </trkpt>
      <trkpt lat="42.83032" lon="0.29425">
        <ele>1305.13</ele>
        <time>2017-12-17T13:01:11Z</time>
      </trkpt>
      <trkpt lat="42.83028" lon="0.29431">
        <ele>1304.17</ele>
        <time>2017-12-17T13:01:26Z</time>
      </trkpt>
      <trkpt lat="42.83027" lon="0.29439">
        <ele>1302.24</ele>
        <time>2017-12-17T13:01:36Z</time>
      </trkpt>
      <trkpt lat="42.83028" lon="0.29443">
        <ele>1301.28</ele>
        <time>2017-12-17T13:01:47Z</time>
      </trkpt>
      <trkpt lat="42.83025" lon="0.29451">
        <ele>1298.88</ele>
        <time>2017-12-17T13:01:57Z</time>
      </trkpt>
      <trkpt lat="42.83025" lon="0.29455">
        <ele>1297.92</ele>
        <time>2017-12-17T13:02:02Z</time>
      </trkpt>
      <trkpt lat="42.83024" lon="0.29463">
        <ele>1295.99</ele>
        <time>2017-12-17T13:02:17Z</time>
      </trkpt>
      <trkpt lat="42.83028" lon="0.29465">
        <ele>1296.48</ele>
        <time>2017-12-17T13:02:29Z</time>
      </trkpt>
      <trkpt lat="42.83028" lon="0.29464">
        <ele>1296.48</ele>
        <time>2017-12-17T13:02:39Z</time>
      </trkpt>
      <trkpt lat="42.83027" lon="0.29467">
        <ele>1296.48</ele>
        <time>2017-12-17T13:02:51Z</time>
      </trkpt>
      <trkpt lat="42.83028" lon="0.29465">
        <ele>1296.48</ele>
        <time>2017-12-17T13:03:11Z</time>
      </trkpt>
      <trkpt lat="42.83045" lon="0.29476">
        <ele>1295.99</ele>
        <time>2017-12-17T13:03:27Z</time>
      </trkpt>
      <trkpt lat="42.83051" lon="0.29479">
        <ele>1295.51</ele>
        <time>2017-12-17T13:03:32Z</time>
      </trkpt>
      <trkpt lat="42.83058" lon="0.29483">
        <ele>1295.03</ele>
        <time>2017-12-17T13:03:39Z</time>
      </trkpt>
      <trkpt lat="42.83068" lon="0.29485">
        <ele>1294.55</ele>
        <time>2017-12-17T13:03:49Z</time>
      </trkpt>
      <trkpt lat="42.83072" lon="0.29487">
        <ele>1294.55</ele>
        <time>2017-12-17T13:03:53Z</time>
      </trkpt>
      <trkpt lat="42.83081" lon="0.29486">
        <ele>1293.59</ele>
        <time>2017-12-17T13:04:06Z</time>
      </trkpt>
      <trkpt lat="42.83084" lon="0.2949">
        <ele>1293.59</ele>
        <time>2017-12-17T13:04:12Z</time>
      </trkpt>
      <trkpt lat="42.83091" lon="0.29503">
        <ele>1293.11</ele>
        <time>2017-12-17T13:04:24Z</time>
      </trkpt>
      <trkpt lat="42.83094" lon="0.29509">
        <ele>1292.15</ele>
        <time>2017-12-17T13:04:32Z</time>
      </trkpt>
      <trkpt lat="42.83092" lon="0.29526">
        <ele>1290.23</ele>
        <time>2017-12-17T13:04:44Z</time>
      </trkpt>
      <trkpt lat="42.8309" lon="0.29534">
        <ele>1289.75</ele>
        <time>2017-12-17T13:04:50Z</time>
      </trkpt>
      <trkpt lat="42.83089" lon="0.29537">
        <ele>1289.27</ele>
        <time>2017-12-17T13:04:52Z</time>
      </trkpt>
      <trkpt lat="42.83089" lon="0.29548">
        <ele>1288.3</ele>
        <time>2017-12-17T13:05:01Z</time>
      </trkpt>
      <trkpt lat="42.83091" lon="0.2957">
        <ele>1286.38</ele>
        <time>2017-12-17T13:05:14Z</time>
      </trkpt>
      <trkpt lat="42.83092" lon="0.29571">
        <ele>1286.38</ele>
        <time>2017-12-17T13:05:15Z</time>
      </trkpt>
      <trkpt lat="42.8309" lon="0.29579">
        <ele>1284.94</ele>
        <time>2017-12-17T13:05:28Z</time>
      </trkpt>
      <trkpt lat="42.8309" lon="0.29575">
        <ele>1284.94</ele>
        <time>2017-12-17T13:05:31Z</time>
      </trkpt>
      <trkpt lat="42.83086" lon="0.29564">
        <ele>1283.5</ele>
        <time>2017-12-17T13:05:39Z</time>
      </trkpt>
      <trkpt lat="42.83079" lon="0.2956">
        <ele>1283.5</ele>
        <time>2017-12-17T13:05:52Z</time>
      </trkpt>
      <trkpt lat="42.8308" lon="0.29562">
        <ele>1283.5</ele>
        <time>2017-12-17T13:06:15Z</time>
      </trkpt>
      <trkpt lat="42.83078" lon="0.2957">
        <ele>1283.5</ele>
        <time>2017-12-17T13:06:31Z</time>
      </trkpt>
      <trkpt lat="42.83081" lon="0.29578">
        <ele>1283.5</ele>
        <time>2017-12-17T13:06:37Z</time>
      </trkpt>
      <trkpt lat="42.83081" lon="0.29582">
        <ele>1283.5</ele>
        <time>2017-12-17T13:06:40Z</time>
      </trkpt>
      <trkpt lat="42.83081" lon="0.29589">
        <ele>1283.5</ele>
        <time>2017-12-17T13:06:52Z</time>
      </trkpt>
      <trkpt lat="42.8308" lon="0.29587">
        <ele>1283.5</ele>
        <time>2017-12-17T13:07:07Z</time>
      </trkpt>
      <trkpt lat="42.83081" lon="0.29582">
        <ele>1283.5</ele>
        <time>2017-12-17T13:07:22Z</time>
      </trkpt>
      <trkpt lat="42.8308" lon="0.29582">
        <ele>1283.5</ele>
        <time>2017-12-17T13:07:38Z</time>
      </trkpt>
      <trkpt lat="42.83078" lon="0.29586">
        <ele>1283.5</ele>
        <time>2017-12-17T13:07:48Z</time>
      </trkpt>
      <trkpt lat="42.83078" lon="0.29586">
        <ele>1283.5</ele>
        <time>2017-12-17T13:08:06Z</time>
      </trkpt>
      <trkpt lat="42.83076" lon="0.29585">
        <ele>1283.5</ele>
        <time>2017-12-17T13:08:46Z</time>
      </trkpt>
      <trkpt lat="42.83077" lon="0.29586">
        <ele>1284.94</ele>
        <time>2017-12-17T13:08:59Z</time>
      </trkpt>
      <trkpt lat="42.83079" lon="0.29589">
        <ele>1283.98</ele>
        <time>2017-12-17T13:09:22Z</time>
      </trkpt>
    </trkseg>
  </trk>
</gpx>